Observation data for Dozier on 03/12/2018      Previous  Date  Next       Current Mesonet Observations  Soil Data  Daily Summary Page  Observations in Plain Language
KDO1 120500Z 01007KT 05/M04 A3037 RMK A01 T00501044  RH  051%=      5-min Rain = 0
KDO1 120501Z 01007KT 05/M04 A3037 RMK A01 T00501044  RH  051%=      5-min Rain = 0
KDO1 120502Z 01007KT 05/M04 A3037 RMK A01 T00511043  RH  050%=      5-min Rain = 0
KDO1 120503Z 01007KT 05/M04 A3037 RMK A01 T00511044  RH  050%=      5-min Rain = 0
KDO1 120504Z 01007KT 05/M04 A3037 RMK A01 T00511043  RH  050%=      5-min Rain = 0
KDO1 120505Z 01006KT 05/M04 A3037 RMK A01 T00521043  RH  050%=      5-min Rain = 0
KDO1 120506Z 01007KT 05/M04 A3037 RMK A01 T00521043  RH  050%=      5-min Rain = 0
KDO1 120507Z 01007KT 05/M04 A3037 RMK A01 T00521043  RH  050%=      5-min Rain = 0
KDO1 120508Z 01006KT 05/M04 A3037 RMK A01 T00521043  RH  050%=      5-min Rain = 0
KDO1 120509Z 01007KT 05/M04 A3037 RMK A01 T00521043  RH  050%=      5-min Rain = 0
KDO1 120510Z 01006KT 05/M04 A3037 RMK A01 T00521043  RH  050%=      5-min Rain = 0
KDO1 120511Z 01007KT 05/M04 A3037 RMK A01 T00521043  RH  050%=      5-min Rain = 0
KDO1 120512Z 01007KT 05/M04 A3037 RMK A01 T00521043  RH  050%=      5-min Rain = 0
KDO1 120513Z 01006KT 05/M04 A3037 RMK A01 T00521043  RH  050%=      5-min Rain = 0
KDO1 120514Z 01007KT 05/M04 A3037 RMK A01 T00511043  RH  050%=      5-min Rain = 0
KDO1 120515Z 01006KT 05/M04 A3037 RMK A01 T00511043  RH  051%=      5-min Rain = 0
KDO1 120516Z 01007KT 05/M04 A3037 RMK A01 T00501043  RH  051%=      5-min Rain = 0
KDO1 120517Z 01007KT 05/M04 A3037 RMK A01 T00501043  RH  051%=      5-min Rain = 0
KDO1 120518Z 01006KT 05/M04 A3037 RMK A01 T00501043  RH  051%=      5-min Rain = 0
KDO1 120519Z 01007KT 05/M04 A3037 RMK A01 T00501044  RH  051%=      5-min Rain = 0
KDO1 120520Z 01007KT 05/M04 A3037 RMK A01 T00491044  RH  051%=      5-min Rain = 0
KDO1 120521Z 01007KT 05/M04 A3037 RMK A01 T00491044  RH  051%=      5-min Rain = 0
KDO1 120522Z 01007KT 05/M04 A3037 RMK A01 T00491044  RH  051%=      5-min Rain = 0
KDO1 120523Z 01007KT 05/M04 A3037 RMK A01 T00491044  RH  051%=      5-min Rain = 0
KDO1 120524Z 01007KT 05/M04 A3037 RMK A01 T00491043  RH  051%=      5-min Rain = 0
KDO1 120525Z 01007KT 05/M04 A3037 RMK A01 T00491043  RH  051%=      5-min Rain = 0
KDO1 120526Z 01006KT 05/M04 A3037 RMK A01 T00491043  RH  051%=      5-min Rain = 0
KDO1 120527Z 01008KT 05/M04 A3037 RMK A01 T00491043  RH  051%=      5-min Rain = 0
KDO1 120528Z 01007KT 05/M04 A3037 RMK A01 T00491043  RH  051%=      5-min Rain = 0
KDO1 120529Z 01007KT 05/M04 A3037 RMK A01 T00491043  RH  051%=      5-min Rain = 0
KDO1 120530Z 01007KT 05/M04 A3037 RMK A01 T00491043  RH  051%=      5-min Rain = 0
KDO1 120531Z 01006KT 05/M04 A3037 RMK A01 T00491043  RH  051%=      5-min Rain = 0
KDO1 120532Z 01006KT 05/M04 A3037 RMK A01 T00481043  RH  051%=      5-min Rain = 0
KDO1 120533Z 01005KT 05/M04 A3037 RMK A01 T00481043  RH  052%=      5-min Rain = 0
KDO1 120534Z 00005KT 05/M04 A3037 RMK A01 T00471044  RH  052%=      5-min Rain = 0
KDO1 120535Z 00006KT 05/M04 A3037 RMK A01 T00471044  RH  052%=      5-min Rain = 0
KDO1 120536Z 00006KT 05/M04 A3037 RMK A01 T00471043  RH  052%=      5-min Rain = 0
KDO1 120537Z 00006KT 05/M04 A3037 RMK A01 T00461044  RH  052%=      5-min Rain = 0
KDO1 120538Z 00006KT 05/M04 A3037 RMK A01 T00461043  RH  052%=      5-min Rain = 0
KDO1 120539Z 00006KT 05/M04 A3037 RMK A01 T00461043  RH  052%=      5-min Rain = 0
KDO1 120540Z 00007KT 05/M04 A3037 RMK A01 T00461043  RH  052%=      5-min Rain = 0
KDO1 120541Z 36006KT 05/M04 A3037 RMK A01 T00461043  RH  052%=      5-min Rain = 0
KDO1 120542Z 00007KT 05/M04 A3037 RMK A01 T00461043  RH  052%=      5-min Rain = 0
KDO1 120543Z 00007KT 05/M04 A3037 RMK A01 T00451043  RH  053%=      5-min Rain = 0
KDO1 120544Z 00007KT 05/M04 A3037 RMK A01 T00451043  RH  053%=      5-min Rain = 0
KDO1 120545Z 00007KT 05/M04 A3037 RMK A01 T00451043  RH  053%=      5-min Rain = 0
KDO1 120546Z 00007KT 05/M04 A3037 RMK A01 T00451043  RH  053%=      5-min Rain = 0
KDO1 120547Z 01006KT 05/M04 A3037 RMK A01 T00461043  RH  053%=      5-min Rain = 0
KDO1 120548Z 01007KT 05/M04 A3037 RMK A01 T00461043  RH  053%=      5-min Rain = 0
KDO1 120549Z 01007KT 05/M04 A3037 RMK A01 T00461043  RH  052%=      5-min Rain = 0
KDO1 120550Z 00006KT 05/M04 A3037 RMK A01 T00471042  RH  052%=      5-min Rain = 0
KDO1 120551Z 01007KT 05/M04 A3037 RMK A01 T00471042  RH  052%=      5-min Rain = 0
KDO1 120552Z 01006KT 05/M04 A3037 RMK A01 T00481042  RH  052%=      5-min Rain = 0
KDO1 120553Z 00006KT 05/M04 A3037 RMK A01 T00481042  RH  052%=      5-min Rain = 0
KDO1 120554Z 36006KT 05/M04 A3037 RMK A01 T00471042  RH  052%=      5-min Rain = 0
KDO1 120555Z 01006KT 05/M04 A3037 RMK A01 T00471043  RH  052%=      5-min Rain = 0
KDO1 120556Z 00006KT 05/M04 A3038 RMK A01 T00471043  RH  052%=      5-min Rain = 0
KDO1 120557Z 00006KT 05/M04 A3038 RMK A01 T00471043  RH  052%=      5-min Rain = 0
KDO1 120558Z 00005KT 05/M04 A3038 RMK A01 T00461043  RH  052%=      5-min Rain = 0
KDO1 120559Z 00005KT 05/M04 A3038 RMK A01 T00471043  RH  052%=      5-min Rain = 0
KDO1 120600Z 00005KT 05/M04 A3038 RMK A01 T00461043  RH  052%=      5-min Rain = 0
KDO1 120601Z 01005KT 05/M04 A3038 RMK A01 T00461043  RH  053%=      5-min Rain = 0
KDO1 120602Z 01005KT 05/M04 A3038 RMK A01 T00461043  RH  053%=      5-min Rain = 0
KDO1 120603Z 01005KT 05/M04 A3038 RMK A01 T00451043  RH  053%=      5-min Rain = 0
KDO1 120604Z 01005KT 05/M04 A3038 RMK A01 T00461043  RH  053%=      5-min Rain = 0
KDO1 120605Z 01005KT 05/M04 A3038 RMK A01 T00451043  RH  053%=      5-min Rain = 0
KDO1 120606Z 01004KT 05/M04 A3038 RMK A01 T00451043  RH  053%=      5-min Rain = 0
KDO1 120607Z 01004KT 05/M04 A3038 RMK A01 T00451043  RH  053%=      5-min Rain = 0
KDO1 120608Z 01005KT 05/M04 A3038 RMK A01 T00451043  RH  053%=      5-min Rain = 0
KDO1 120609Z 01004KT 04/M04 A3038 RMK A01 T00441044  RH  053%=      5-min Rain = 0
KDO1 120610Z 01005KT 04/M04 A3038 RMK A01 T00441043  RH  053%=      5-min Rain = 0
KDO1 120611Z 01005KT 04/M04 A3038 RMK A01 T00431043  RH  053%=      5-min Rain = 0
KDO1 120612Z 01004KT 04/M04 A3038 RMK A01 T00431043  RH  053%=      5-min Rain = 0
KDO1 120613Z 00004KT 04/M04 A3038 RMK A01 T00441043  RH  053%=      5-min Rain = 0
KDO1 120614Z 01004KT 04/M04 A3038 RMK A01 T00431043  RH  053%=      5-min Rain = 0
KDO1 120615Z 01005KT 04/M04 A3038 RMK A01 T00431043  RH  053%=      5-min Rain = 0
KDO1 120616Z 01004KT 04/M04 A3038 RMK A01 T00431043  RH  054%=      5-min Rain = 0
KDO1 120617Z 01004KT 04/M04 A3038 RMK A01 T00421044  RH  054%=      5-min Rain = 0
KDO1 120618Z 01004KT 04/M04 A3038 RMK A01 T00421044  RH  054%=      5-min Rain = 0
KDO1 120619Z 01005KT 04/M04 A3038 RMK A01 T00421044  RH  054%=      5-min Rain = 0
KDO1 120620Z 01004KT 04/M04 A3038 RMK A01 T00421043  RH  054%=      5-min Rain = 0
KDO1 120621Z 01005KT 04/M04 A3038 RMK A01 T00421043  RH  054%=      5-min Rain = 0
KDO1 120622Z 01005KT 04/M04 A3038 RMK A01 T00421043  RH  054%=      5-min Rain = 0
KDO1 120623Z 01005KT 04/M04 A3038 RMK A01 T00421043  RH  054%=      5-min Rain = 0
KDO1 120624Z 01005KT 04/M04 A3038 RMK A01 T00421043  RH  054%=      5-min Rain = 0
KDO1 120625Z 01005KT 04/M04 A3038 RMK A01 T00421043  RH  054%=      5-min Rain = 0
KDO1 120626Z 01006KT 04/M04 A3038 RMK A01 T00421043  RH  054%=      5-min Rain = 0
KDO1 120627Z 02005KT 04/M04 A3038 RMK A01 T00421043  RH  054%=      5-min Rain = 0
KDO1 120628Z 01005KT 04/M04 A3038 RMK A01 T00411044  RH  054%=      5-min Rain = 0
KDO1 120629Z 01005KT 04/M04 A3038 RMK A01 T00411043  RH  054%=      5-min Rain = 0
KDO1 120630Z 01005KT 04/M04 A3038 RMK A01 T00411044  RH  054%=      5-min Rain = 0
KDO1 120631Z 01005KT 04/M04 A3038 RMK A01 T00411043  RH  054%=      5-min Rain = 0
KDO1 120632Z 01005KT 04/M04 A3038 RMK A01 T00421044  RH  054%=      5-min Rain = 0
KDO1 120633Z 01006KT 04/M04 A3038 RMK A01 T00411044  RH  054%=      5-min Rain = 0
KDO1 120634Z 01005KT 04/M04 A3038 RMK A01 T00401044  RH  054%=      5-min Rain = 0
KDO1 120635Z 01006KT 04/M04 A3038 RMK A01 T00401044  RH  054%=      5-min Rain = 0
KDO1 120636Z 01006KT 04/M05 A3038 RMK A01 T00391045  RH  055%=      5-min Rain = 0
KDO1 120637Z 01006KT 04/M05 A3038 RMK A01 T00381045  RH  055%=      5-min Rain = 0
KDO1 120638Z 01006KT 04/M05 A3038 RMK A01 T00371045  RH  055%=      5-min Rain = 0
KDO1 120639Z 01005KT 04/M05 A3038 RMK A01 T00371045  RH  055%=      5-min Rain = 0
KDO1 120640Z 01006KT 04/M05 A3038 RMK A01 T00361045  RH  055%=      5-min Rain = 0
KDO1 120641Z 01005KT 04/M05 A3038 RMK A01 T00361045  RH  055%=      5-min Rain = 0
KDO1 120642Z 01005KT 04/M05 A3038 RMK A01 T00361045  RH  056%=      5-min Rain = 0
KDO1 120643Z 01005KT 04/M05 A3038 RMK A01 T00351045  RH  056%=      5-min Rain = 0
KDO1 120644Z 01005KT 04/M05 A3038 RMK A01 T00351045  RH  056%=      5-min Rain = 0
KDO1 120645Z 01005KT 04/M04 A3038 RMK A01 T00351044  RH  056%=      5-min Rain = 0
KDO1 120646Z 02005KT 04/M04 A3038 RMK A01 T00351044  RH  056%=      5-min Rain = 0
KDO1 120647Z 02005KT 04/M04 A3038 RMK A01 T00351044  RH  056%=      5-min Rain = 0
KDO1 120648Z 02005KT 04/M04 A3038 RMK A01 T00351044  RH  056%=      5-min Rain = 0
KDO1 120649Z 02005KT 04/M04 A3038 RMK A01 T00351044  RH  056%=      5-min Rain = 0
KDO1 120650Z 02005KT 03/M05 A3038 RMK A01 T00341045  RH  056%=      5-min Rain = 0
KDO1 120651Z 03005KT 03/M05 A3038 RMK A01 T00341045  RH  056%=      5-min Rain = 0
KDO1 120652Z 02005KT 03/M05 A3038 RMK A01 T00331045  RH  057%=      5-min Rain = 0
KDO1 120653Z 02005KT 03/M05 A3038 RMK A01 T00321045  RH  057%=      5-min Rain = 0
KDO1 120654Z 02006KT 03/M05 A3038 RMK A01 T00321045  RH  057%=      5-min Rain = 0
KDO1 120655Z 02006KT 03/M05 A3038 RMK A01 T00321045  RH  057%=      5-min Rain = 0
KDO1 120656Z 02006KT 03/M05 A3038 RMK A01 T00311045  RH  057%=      5-min Rain = 0
KDO1 120657Z 02005KT 03/M05 A3038 RMK A01 T00321045  RH  057%=      5-min Rain = 0
KDO1 120658Z 02006KT 03/M05 A3038 RMK A01 T00311045  RH  057%=      5-min Rain = 0
KDO1 120659Z 02006KT 03/M05 A3038 RMK A01 T00311045  RH  057%=      5-min Rain = 0
KDO1 120700Z 02007KT 03/M05 A3038 RMK A01 T00301046  RH  058%=      5-min Rain = 0
KDO1 120701Z 02006KT 03/M05 A3038 RMK A01 T00301045  RH  058%=      5-min Rain = 0
KDO1 120702Z 02007KT 03/M05 A3038 RMK A01 T00311045  RH  058%=      5-min Rain = 0
KDO1 120703Z 02007KT 03/M05 A3038 RMK A01 T00311045  RH  057%=      5-min Rain = 0
KDO1 120704Z 02007KT 03/M05 A3038 RMK A01 T00311045  RH  057%=      5-min Rain = 0
KDO1 120705Z 02007KT 03/M05 A3038 RMK A01 T00311045  RH  057%=      5-min Rain = 0
KDO1 120706Z 02007KT 03/M05 A3038 RMK A01 T00301046  RH  057%=      5-min Rain = 0
KDO1 120707Z 02006KT 03/M05 A3038 RMK A01 T00291047  RH  058%=      5-min Rain = 0
KDO1 120708Z 02007KT 03/M05 A3038 RMK A01 T00271047  RH  058%=      5-min Rain = 0
KDO1 120709Z 02007KT 03/M05 A3038 RMK A01 T00261047  RH  059%=      5-min Rain = 0
KDO1 120710Z 01006KT 03/M05 A3038 RMK A01 T00251047  RH  059%=      5-min Rain = 0
KDO1 120711Z 02007KT 03/M05 A3038 RMK A01 T00251047  RH  059%=      5-min Rain = 0
KDO1 120712Z 02006KT 03/M05 A3038 RMK A01 T00251047  RH  059%=      5-min Rain = 0
KDO1 120713Z 02007KT 03/M05 A3038 RMK A01 T00251047  RH  059%=      5-min Rain = 0
KDO1 120714Z 02007KT 03/M05 A3038 RMK A01 T00251046  RH  059%=      5-min Rain = 0
KDO1 120715Z 02007KT 03/M05 A3038 RMK A01 T00261046  RH  059%=      5-min Rain = 0
KDO1 120716Z 02007KT 03/M05 A3038 RMK A01 T00251047  RH  059%=      5-min Rain = 0
KDO1 120717Z 02007KT 03/M05 A3038 RMK A01 T00251046  RH  059%=      5-min Rain = 0
KDO1 120718Z 02007KT 03/M05 A3038 RMK A01 T00251046  RH  060%=      5-min Rain = 0
KDO1 120719Z 02007KT 03/M05 A3038 RMK A01 T00251046  RH  060%=      5-min Rain = 0
KDO1 120720Z 01007KT 03/M05 A3038 RMK A01 T00251046  RH  059%=      5-min Rain = 0
KDO1 120721Z 02006KT 02/M05 A3038 RMK A01 T00241047  RH  060%=      5-min Rain = 0
KDO1 120722Z 01007KT 02/M05 A3038 RMK A01 T00231047  RH  060%=      5-min Rain = 0
KDO1 120723Z 01007KT 02/M05 A3038 RMK A01 T00221048  RH  060%=      5-min Rain = 0
KDO1 120724Z 01007KT 02/M05 A3038 RMK A01 T00201049  RH  060%=      5-min Rain = 0
KDO1 120725Z 01007KT 02/M05 A3038 RMK A01 T00191049  RH  061%=      5-min Rain = 0
KDO1 120726Z 01007KT 02/M05 A3038 RMK A01 T00181050  RH  061%=      5-min Rain = 0
KDO1 120727Z 01007KT 02/M05 A3038 RMK A01 T00171049  RH  061%=      5-min Rain = 0
KDO1 120728Z 01008KT 02/M05 A3038 RMK A01 T00171049  RH  062%=      5-min Rain = 0
KDO1 120729Z 01008KT 02/M05 A3038 RMK A01 T00171049  RH  062%=      5-min Rain = 0
KDO1 120730Z 01007KT 02/M05 A3038 RMK A01 T00171048  RH  062%=      5-min Rain = 0
KDO1 120731Z 01007KT 02/M05 A3038 RMK A01 T00171048  RH  062%=      5-min Rain = 0
KDO1 120732Z 01007KT 02/M05 A3038 RMK A01 T00171048  RH  062%=      5-min Rain = 0
KDO1 120733Z 01007KT 02/M05 A3038 RMK A01 T00181048  RH  062%=      5-min Rain = 0
KDO1 120734Z 01007KT 02/M05 A3038 RMK A01 T00181047  RH  062%=      5-min Rain = 0
KDO1 120735Z 01006KT 02/M05 A3038 RMK A01 T00181047  RH  062%=      5-min Rain = 0
KDO1 120736Z 00006KT 02/M05 A3038 RMK A01 T00181047  RH  062%=      5-min Rain = 0
KDO1 120737Z 00006KT 02/M05 A3038 RMK A01 T00181047  RH  062%=      5-min Rain = 0
KDO1 120738Z 01006KT 02/M05 A3038 RMK A01 T00181047  RH  062%=      5-min Rain = 0
KDO1 120739Z 00006KT 02/M05 A3038 RMK A01 T00181047  RH  062%=      5-min Rain = 0
KDO1 120740Z 00006KT 02/M05 A3038 RMK A01 T00181047  RH  062%=      5-min Rain = 0
KDO1 120741Z 00006KT 02/M05 A3038 RMK A01 T00181046  RH  062%=      5-min Rain = 0
KDO1 120742Z 01006KT 02/M05 A3038 RMK A01 T00181047  RH  062%=      5-min Rain = 0
KDO1 120743Z 01006KT 02/M05 A3038 RMK A01 T00171047  RH  062%=      5-min Rain = 0
KDO1 120744Z 01006KT 02/M05 A3038 RMK A01 T00171047  RH  062%=      5-min Rain = 0
KDO1 120745Z 01006KT 02/M05 A3038 RMK A01 T00171046  RH  063%=      5-min Rain = 0
KDO1 120746Z 01006KT 02/M05 A3038 RMK A01 T00181046  RH  063%=      5-min Rain = 0
KDO1 120747Z 01006KT 02/M05 A3038 RMK A01 T00171047  RH  063%=      5-min Rain = 0
KDO1 120748Z 01006KT 02/M05 A3038 RMK A01 T00171047  RH  063%=      5-min Rain = 0
KDO1 120749Z 00005KT 02/M05 A3038 RMK A01 T00161047  RH  063%=      5-min Rain = 0
KDO1 120750Z 00005KT 02/M05 A3038 RMK A01 T00161047  RH  063%=      5-min Rain = 0
KDO1 120751Z 00005KT 02/M05 A3038 RMK A01 T00161047  RH  063%=      5-min Rain = 0
KDO1 120752Z 00006KT 02/M05 A3038 RMK A01 T00151047  RH  063%=      5-min Rain = 0
KDO1 120753Z 36005KT 02/M05 A3038 RMK A01 T00151047  RH  063%=      5-min Rain = 0
KDO1 120754Z 36006KT 01/M05 A3038 RMK A01 T00141047  RH  064%=      5-min Rain = 0
KDO1 120755Z 35006KT 01/M05 A3038 RMK A01 T00141047  RH  064%=      5-min Rain = 0
KDO1 120756Z 35005KT 01/M05 A3038 RMK A01 T00141047  RH  064%=      5-min Rain = 0
KDO1 120757Z 35005KT 01/M05 A3038 RMK A01 T00141047  RH  064%=      5-min Rain = 0
KDO1 120758Z 35005KT 01/M05 A3038 RMK A01 T00141047  RH  064%=      5-min Rain = 0
KDO1 120759Z 36006KT 01/M05 A3038 RMK A01 T00141047  RH  064%=      5-min Rain = 0
KDO1 120800Z 36006KT 01/M05 A3038 RMK A01 T00141047  RH  064%=      5-min Rain = 0
KDO1 120801Z 36006KT 01/M05 A3038 RMK A01 T00131047  RH  064%=      5-min Rain = 0
KDO1 120802Z 36006KT 01/M05 A3038 RMK A01 T00131047  RH  064%=      5-min Rain = 0
KDO1 120803Z 00006KT 01/M05 A3038 RMK A01 T00131047  RH  064%=      5-min Rain = 0
KDO1 120804Z 36006KT 01/M05 A3038 RMK A01 T00131047  RH  064%=      5-min Rain = 0
KDO1 120805Z 36006KT 01/M05 A3038 RMK A01 T00131047  RH  064%=      5-min Rain = 0
KDO1 120806Z 36006KT 01/M05 A3038 RMK A01 T00131047  RH  064%=      5-min Rain = 0
KDO1 120807Z 36007KT 01/M05 A3038 RMK A01 T00131048  RH  064%=      5-min Rain = 0
KDO1 120808Z 36006KT 01/M05 A3038 RMK A01 T00131047  RH  064%=      5-min Rain = 0
KDO1 120809Z 36006KT 01/M05 A3038 RMK A01 T00131047  RH  064%=      5-min Rain = 0
KDO1 120810Z 36006KT 01/M05 A3038 RMK A01 T00131047  RH  064%=      5-min Rain = 0
KDO1 120811Z 00006KT 01/M05 A3038 RMK A01 T00131046  RH  065%=      5-min Rain = 0
KDO1 120812Z 36006KT 01/M05 A3038 RMK A01 T00131047  RH  064%=      5-min Rain = 0
KDO1 120813Z 00006KT 01/M05 A3038 RMK A01 T00131047  RH  064%=      5-min Rain = 0
KDO1 120814Z 00006KT 01/M05 A3038 RMK A01 T00121047  RH  065%=      5-min Rain = 0
KDO1 120815Z 00007KT 01/M05 A3038 RMK A01 T00121047  RH  065%=      5-min Rain = 0
KDO1 120816Z 01007KT 01/M05 A3038 RMK A01 T00121047  RH  065%=      5-min Rain = 0
KDO1 120817Z 01007KT 01/M05 A3037 RMK A01 T00121047  RH  065%=      5-min Rain = 0
KDO1 120818Z 01007KT 01/M05 A3037 RMK A01 T00131047  RH  065%=      5-min Rain = 0
KDO1 120819Z 01007KT 01/M05 A3037 RMK A01 T00141045  RH  065%=      5-min Rain = 0
KDO1 120820Z 01007KT 01/M05 A3037 RMK A01 T00141045  RH  065%=      5-min Rain = 0
KDO1 120821Z 02007KT 01/M05 A3037 RMK A01 T00141045  RH  064%=      5-min Rain = 0
KDO1 120822Z 02006KT 01/M05 A3037 RMK A01 T00141046  RH  064%=      5-min Rain = 0
KDO1 120823Z 02006KT 01/M05 A3037 RMK A01 T00141046  RH  064%=      5-min Rain = 0
KDO1 120824Z 02006KT 01/M05 A3037 RMK A01 T00131047  RH  064%=      5-min Rain = 0
KDO1 120825Z 01006KT 01/M05 A3037 RMK A01 T00121047  RH  065%=      5-min Rain = 0
KDO1 120826Z 02006KT 01/M05 A3037 RMK A01 T00101048  RH  065%=      5-min Rain = 0
KDO1 120827Z 02005KT 01/M05 A3037 RMK A01 T00091048  RH  066%=      5-min Rain = 0
KDO1 120828Z 01005KT 01/M05 A3037 RMK A01 T00081048  RH  066%=      5-min Rain = 0
KDO1 120829Z 00006KT 01/M05 A3037 RMK A01 T00071049  RH  066%=      5-min Rain = 0
KDO1 120830Z 36006KT 01/M05 A3037 RMK A01 T00061050  RH  066%=      5-min Rain = 0
KDO1 120831Z 35005KT 00/M05 A3037 RMK A01 T00041051  RH  066%=      5-min Rain = 0
KDO1 120832Z 34005KT 00/M05 A3037 RMK A01 T00031052  RH  067%=      5-min Rain = 0
KDO1 120833Z 33006KT 00/M05 A3037 RMK A01 T00011052  RH  067%=      5-min Rain = 0
KDO1 120834Z 33006KT 00/M05 A3037 RMK A01 T00011051  RH  068%=      5-min Rain = 0
KDO1 120835Z 33005KT 00/M05 A3037 RMK A01 T00011051  RH  068%=      5-min Rain = 0
KDO1 120836Z 34006KT 00/M05 A3037 RMK A01 T00011050  RH  068%=      5-min Rain = 0
KDO1 120837Z 35006KT 00/M05 A3037 RMK A01 T00031050  RH  068%=      5-min Rain = 0
KDO1 120838Z 35005KT 00/M05 A3037 RMK A01 T00041049  RH  067%=      5-min Rain = 0
KDO1 120839Z 35005KT 01/M05 A3037 RMK A01 T00051049  RH  067%=      5-min Rain = 0
KDO1 120840Z 36005KT 01/M05 A3036 RMK A01 T00061049  RH  067%=      5-min Rain = 0
KDO1 120841Z 00005KT 01/M05 A3036 RMK A01 T00071048  RH  067%=      5-min Rain = 0
KDO1 120842Z 36004KT 01/M05 A3036 RMK A01 T00071048  RH  067%=      5-min Rain = 0
KDO1 120843Z 35003KT 01/M05 A3037 RMK A01 T00071048  RH  067%=      5-min Rain = 0
KDO1 120844Z 34004KT 01/M05 A3037 RMK A01 T00071048  RH  067%=      5-min Rain = 0
KDO1 120845Z 34004KT 01/M05 A3037 RMK A01 T00071048  RH  067%=      5-min Rain = 0
KDO1 120846Z 32004KT 01/M05 A3037 RMK A01 T00071047  RH  067%=      5-min Rain = 0
KDO1 120847Z 32005KT 01/M05 A3037 RMK A01 T00081047  RH  067%=      5-min Rain = 0
KDO1 120848Z 33005KT 01/M05 A3037 RMK A01 T00081047  RH  067%=      5-min Rain = 0
KDO1 120849Z 34005KT 01/M05 A3037 RMK A01 T00081047  RH  066%=      5-min Rain = 0
KDO1 120850Z 34005KT 01/M05 A3037 RMK A01 T00091046  RH  066%=      5-min Rain = 0
KDO1 120851Z 34005KT 01/M05 A3037 RMK A01 T00101046  RH  066%=      5-min Rain = 0
KDO1 120852Z 35004KT 01/M05 A3037 RMK A01 T00101047  RH  066%=      5-min Rain = 0
KDO1 120853Z 34005KT 01/M05 A3037 RMK A01 T00101046  RH  066%=      5-min Rain = 0
KDO1 120854Z 33004KT 01/M05 A3037 RMK A01 T00111046  RH  066%=      5-min Rain = 0
KDO1 120855Z 32004KT 01/M05 A3037 RMK A01 T00111047  RH  065%=      5-min Rain = 0
KDO1 120856Z 30005KT 01/M05 A3037 RMK A01 T00101048  RH  065%=      5-min Rain = 0
KDO1 120857Z 29004KT 01/M05 A3037 RMK A01 T00091048  RH  066%=      5-min Rain = 0
KDO1 120858Z 28005KT 01/M05 A3037 RMK A01 T00091047  RH  066%=      5-min Rain = 0
KDO1 120859Z 29006KT 01/M05 A3037 RMK A01 T00091047  RH  066%=      5-min Rain = 0
KDO1 120900Z 29006KT 01/M05 A3037 RMK A01 T00081048  RH  066%=      5-min Rain = 0
KDO1 120901Z 29006KT 01/M05 A3037 RMK A01 T00071048  RH  067%=      5-min Rain = 0
KDO1 120902Z 29007KT 01/M05 A3037 RMK A01 T00061048  RH  067%=      5-min Rain = 0
KDO1 120903Z 28006KT 01/M05 A3037 RMK A01 T00051048  RH  067%=      5-min Rain = 0
KDO1 120904Z 29006KT 01/M05 A3038 RMK A01 T00061048  RH  068%=      5-min Rain = 0
KDO1 120905Z 28006KT 01/M05 A3038 RMK A01 T00051048  RH  067%=      5-min Rain = 0
KDO1 120906Z 28006KT 01/M05 A3038 RMK A01 T00061048  RH  067%=      5-min Rain = 0
KDO1 120907Z 28007KT 01/M05 A3038 RMK A01 T00051049  RH  067%=      5-min Rain = 0
KDO1 120908Z 28007KT 00/M05 A3038 RMK A01 T00041051  RH  067%=      5-min Rain = 0
KDO1 120909Z 28007KT 00/M05 A3038 RMK A01 T00021052  RH  067%=      5-min Rain = 0
KDO1 120910Z 29007KT 00/M05 A3038 RMK A01 T00011052  RH  067%=      5-min Rain = 0
KDO1 120911Z 29009KT 00/05 A3038 RMK A01 T00-00-52  RH  068%=      5-min Rain = 0
KDO1 120912Z 29008KT 00/05 A3037 RMK A01 T00-00-51  RH  069%=      5-min Rain = 0
KDO1 120913Z 30006KT 00/05 A3037 RMK A01 T00000-51  RH  069%=      5-min Rain = 0
KDO1 120914Z 30006KT 00/M05 A3037 RMK A01 T00011050  RH  069%=      5-min Rain = 0
KDO1 120915Z 30007KT 00/M05 A3037 RMK A01 T00011050  RH  069%=      5-min Rain = 0
KDO1 120916Z 31006KT 00/M05 A3037 RMK A01 T00011050  RH  068%=      5-min Rain = 0
KDO1 120917Z 31005KT 00/M05 A3037 RMK A01 T00011050  RH  068%=      5-min Rain = 0
KDO1 120918Z 30005KT 00/M05 A3037 RMK A01 T00011051  RH  068%=      5-min Rain = 0
KDO1 120919Z 30005KT 00/05 A3037 RMK A01 T00000-51  RH  068%=      5-min Rain = 0
KDO1 120920Z 30005KT 00/M05 A3037 RMK A01 T00011050  RH  069%=      5-min Rain = 0
KDO1 120921Z 30004KT 00/M05 A3037 RMK A01 T00011050  RH  069%=      5-min Rain = 0
KDO1 120922Z 30005KT 00/M05 A3037 RMK A01 T00021049  RH  069%=      5-min Rain = 0
KDO1 120923Z 30005KT 00/M05 A3037 RMK A01 T00021049  RH  069%=      5-min Rain = 0
KDO1 120924Z 30004KT 00/M05 A3037 RMK A01 T00031048  RH  069%=      5-min Rain = 0
KDO1 120925Z 30005KT 00/M05 A3037 RMK A01 T00031048  RH  068%=      5-min Rain = 0
KDO1 120926Z 30005KT 00/M05 A3037 RMK A01 T00031049  RH  068%=      5-min Rain = 0
KDO1 120927Z 30005KT 00/M05 A3037 RMK A01 T00031048  RH  068%=      5-min Rain = 0
KDO1 120928Z 30005KT 00/M05 A3037 RMK A01 T00031048  RH  068%=      5-min Rain = 0
KDO1 120929Z 31005KT 00/M05 A3037 RMK A01 T00031048  RH  068%=      5-min Rain = 0
KDO1 120930Z 31005KT 00/M05 A3037 RMK A01 T00041047  RH  069%=      5-min Rain = 0
KDO1 120931Z 30005KT 01/M05 A3037 RMK A01 T00051048  RH  068%=      5-min Rain = 0
KDO1 120932Z 31005KT 01/M05 A3038 RMK A01 T00051048  RH  068%=      5-min Rain = 0
KDO1 120933Z 30005KT 01/M05 A3038 RMK A01 T00051048  RH  068%=      5-min Rain = 0
KDO1 120934Z 30004KT 01/M05 A3038 RMK A01 T00051047  RH  068%=      5-min Rain = 0
KDO1 120935Z 30004KT 01/M05 A3038 RMK A01 T00051047  RH  068%=      5-min Rain = 0
KDO1 120936Z 30004KT 01/M05 A3038 RMK A01 T00051048  RH  068%=      5-min Rain = 0
KDO1 120937Z 30004KT 01/M05 A3038 RMK A01 T00051048  RH  068%=      5-min Rain = 0
KDO1 120938Z 30004KT 00/M05 A3038 RMK A01 T00041048  RH  068%=      5-min Rain = 0
KDO1 120939Z 30004KT 00/M05 A3038 RMK A01 T00041048  RH  068%=      5-min Rain = 0
KDO1 120940Z 29004KT 00/M05 A3038 RMK A01 T00041048  RH  068%=      5-min Rain = 0
KDO1 120941Z 30005KT 00/M05 A3038 RMK A01 T00041048  RH  068%=      5-min Rain = 0
KDO1 120942Z 30004KT 00/M05 A3037 RMK A01 T00041047  RH  069%=      5-min Rain = 0
KDO1 120943Z 31005KT 00/M05 A3037 RMK A01 T00041047  RH  068%=      5-min Rain = 0
KDO1 120944Z 31005KT 01/M05 A3037 RMK A01 T00051047  RH  068%=      5-min Rain = 0
KDO1 120945Z 31005KT 01/M05 A3037 RMK A01 T00051047  RH  068%=      5-min Rain = 0
KDO1 120946Z 32005KT 01/M05 A3037 RMK A01 T00051047  RH  068%=      5-min Rain = 0
KDO1 120947Z 32005KT 00/M05 A3037 RMK A01 T00041048  RH  068%=      5-min Rain = 0
KDO1 120948Z 32006KT 00/M05 A3037 RMK A01 T00031050  RH  068%=      5-min Rain = 0
KDO1 120949Z 33007KT 00/M05 A3037 RMK A01 T00021050  RH  068%=      5-min Rain = 0
KDO1 120950Z 33007KT 00/M05 A3037 RMK A01 T00021049  RH  068%=      5-min Rain = 0
KDO1 120951Z 33008KT 00/M05 A3037 RMK A01 T00021049  RH  068%=      5-min Rain = 0
KDO1 120952Z 34007KT 00/M05 A3037 RMK A01 T00021050  RH  068%=      5-min Rain = 0
KDO1 120953Z 34008KT 00/M05 A3037 RMK A01 T00021049  RH  068%=      5-min Rain = 0
KDO1 120954Z 34008KT 00/M05 A3037 RMK A01 T00021049  RH  068%=      5-min Rain = 0
KDO1 120955Z 34008KT 00/M05 A3037 RMK A01 T00031048  RH  069%=      5-min Rain = 0
KDO1 120956Z 34007KT 00/M05 A3037 RMK A01 T00041047  RH  069%=      5-min Rain = 0
KDO1 120957Z 34007KT 01/M05 A3037 RMK A01 T00051047  RH  069%=      5-min Rain = 0
KDO1 120958Z 34007KT 01/M05 A3037 RMK A01 T00051046  RH  068%=      5-min Rain = 0
KDO1 120959Z 34007KT 01/M05 A3037 RMK A01 T00051046  RH  069%=      5-min Rain = 0
KDO1 121000Z 34007KT 01/M05 A3037 RMK A01 T00051046  RH  069%=      5-min Rain = 0
KDO1 121001Z 34006KT 00/M05 A3037 RMK A01 T00041047  RH  069%=      5-min Rain = 0
KDO1 121002Z 35006KT 00/M05 A3037 RMK A01 T00041047  RH  069%=      5-min Rain = 0
KDO1 121003Z 35007KT 00/M05 A3037 RMK A01 T00031047  RH  069%=      5-min Rain = 0
KDO1 121004Z 35006KT 00/M05 A3037 RMK A01 T00021047  RH  069%=      5-min Rain = 0
KDO1 121005Z 35007KT 00/M05 A3037 RMK A01 T00021047  RH  070%=      5-min Rain = 0
KDO1 121006Z 35005KT 00/M05 A3037 RMK A01 T00021047  RH  070%=      5-min Rain = 0
KDO1 121007Z 35006KT 00/M05 A3037 RMK A01 T00011048  RH  070%=      5-min Rain = 0
KDO1 121008Z 35006KT M00/M05 A3037 RMK A01 T10011048  RH  070%=      5-min Rain = 0
KDO1 121009Z 35006KT M00/M05 A3037 RMK A01 T10021049  RH  070%=      5-min Rain = 0
KDO1 121010Z 35005KT M00/M05 A3037 RMK A01 T10031049  RH  071%=      5-min Rain = 0
KDO1 121011Z 35005KT M00/M05 A3037 RMK A01 T10031050  RH  071%=      5-min Rain = 0
KDO1 121012Z 35005KT M00/M05 A3037 RMK A01 T10041049  RH  072%=      5-min Rain = 0
KDO1 121013Z 36004KT M01/M05 A3037 RMK A01 T10051050  RH  072%=      5-min Rain = 0
KDO1 121014Z 35004KT M01/M05 A3037 RMK A01 T10051050  RH  072%=      5-min Rain = 0
KDO1 121015Z 00003KT M01/M05 A3037 RMK A01 T10061050  RH  072%=      5-min Rain = 0
KDO1 121016Z 35003KT M01/M05 A3037 RMK A01 T10061050  RH  072%=      5-min Rain = 0
KDO1 121017Z 34002KT M01/M05 A3037 RMK A01 T10071051  RH  072%=      5-min Rain = 0
KDO1 121018Z 35002KT M01/M05 A3038 RMK A01 T10081052  RH  072%=      5-min Rain = 0
KDO1 121019Z 34000KT M01/M05 A3038 RMK A01 T10091053  RH  072%=      5-min Rain = 0
KDO1 121020Z 00000KT M01/M05 A3037 RMK A01 T10101052  RH  073%=      5-min Rain = 0
KDO1 121021Z 00000KT M01/M05 A3037 RMK A01 T10101051  RH  074%=      5-min Rain = 0
KDO1 121022Z 00000KT M01/M05 A3037 RMK A01 T10101051  RH  074%=      5-min Rain = 0
KDO1 121023Z 00000KT M01/M05 A3037 RMK A01 T10101051  RH  074%=      5-min Rain = 0
KDO1 121024Z 14001KT M01/M05 A3037 RMK A01 T10101052  RH  073%=      5-min Rain = 0
KDO1 121025Z 14001KT M01/M05 A3037 RMK A01 T10121053  RH  073%=      5-min Rain = 0
KDO1 121026Z 15001KT M01/M05 A3037 RMK A01 T10131054  RH  074%=      5-min Rain = 0
KDO1 121027Z 00000KT M01/M05 A3037 RMK A01 T10141054  RH  074%=      5-min Rain = 0
KDO1 121028Z 00000KT M01/M05 A3037 RMK A01 T10141054  RH  074%=      5-min Rain = 0
KDO1 121029Z 00000KT M02/M05 A3037 RMK A01 T10151053  RH  075%=      5-min Rain = 0
KDO1 121030Z 04000KT M02/M05 A3037 RMK A01 T10151053  RH  075%=      5-min Rain = 0
KDO1 121031Z 01001KT M01/M05 A3037 RMK A01 T10141052  RH  075%=      5-min Rain = 0
KDO1 121032Z 01002KT M01/M05 A3037 RMK A01 T10131052  RH  075%=      5-min Rain = 0
KDO1 121033Z 01003KT M01/M05 A3037 RMK A01 T10131051  RH  075%=      5-min Rain = 0
KDO1 121034Z 00004KT M01/M05 A3037 RMK A01 T10131052  RH  075%=      5-min Rain = 0
KDO1 121035Z 00004KT M01/M05 A3037 RMK A01 T10121052  RH  074%=      5-min Rain = 0
KDO1 121036Z 00005KT M01/M05 A3037 RMK A01 T10131053  RH  074%=      5-min Rain = 0
KDO1 121037Z 00005KT M01/M05 A3038 RMK A01 T10141054  RH  074%=      5-min Rain = 0
KDO1 121038Z 36005KT M02/M05 A3038 RMK A01 T10151054  RH  075%=      5-min Rain = 0
KDO1 121039Z 35006KT M02/M05 A3038 RMK A01 T10151053  RH  075%=      5-min Rain = 0
KDO1 121040Z 35005KT M02/M05 A3038 RMK A01 T10151054  RH  075%=      5-min Rain = 0
KDO1 121041Z 35005KT M02/M05 A3038 RMK A01 T10161054  RH  075%=      5-min Rain = 0
KDO1 121042Z 34005KT M02/M06 A3038 RMK A01 T10161055  RH  075%=      5-min Rain = 0
KDO1 121043Z 34005KT M02/M06 A3038 RMK A01 T10171057  RH  075%=      5-min Rain = 0
KDO1 121044Z 33004KT M02/M06 A3038 RMK A01 T10191058  RH  075%=      5-min Rain = 0
KDO1 121045Z 32004KT M02/M06 A3038 RMK A01 T10201058  RH  075%=      5-min Rain = 0
KDO1 121046Z 31004KT M02/M06 A3038 RMK A01 T10201057  RH  076%=      5-min Rain = 0
KDO1 121047Z 28004KT M02/M06 A3038 RMK A01 T10221059  RH  075%=      5-min Rain = 0
KDO1 121048Z 26005KT M02/M06 A3038 RMK A01 T10241061  RH  076%=      5-min Rain = 0
KDO1 121049Z 25006KT M03/M06 A3038 RMK A01 T10251060  RH  077%=      5-min Rain = 0
KDO1 121050Z 23007KT M03/M06 A3038 RMK A01 T10251059  RH  077%=      5-min Rain = 0
KDO1 121051Z 22007KT M03/M06 A3038 RMK A01 T10251060  RH  077%=      5-min Rain = 0
KDO1 121052Z 23006KT M03/M06 A3038 RMK A01 T10261062  RH  076%=      5-min Rain = 0
KDO1 121053Z 23005KT M03/M06 A3038 RMK A01 T10261062  RH  076%=      5-min Rain = 0
KDO1 121054Z 24004KT M03/M06 A3038 RMK A01 T10271062  RH  077%=      5-min Rain = 0
KDO1 121055Z 26004KT M03/M06 A3038 RMK A01 T10271062  RH  077%=      5-min Rain = 0
KDO1 121056Z 26004KT M03/M06 A3038 RMK A01 T10271062  RH  077%=      5-min Rain = 0
KDO1 121057Z 27004KT M03/M06 A3038 RMK A01 T10261062  RH  076%=      5-min Rain = 0
KDO1 121058Z 28005KT M03/M06 A3038 RMK A01 T10261061  RH  077%=      5-min Rain = 0
KDO1 121059Z 29005KT M03/M06 A3038 RMK A01 T10251059  RH  077%=      5-min Rain = 0
KDO1 121100Z 30007KT M02/M06 A3038 RMK A01 T10231057  RH  078%=      5-min Rain = 0
KDO1 121101Z 30006KT M02/M05 A3038 RMK A01 T10201054  RH  078%=      5-min Rain = 0
KDO1 121102Z 31006KT M02/M06 A3038 RMK A01 T10201055  RH  077%=      5-min Rain = 0
KDO1 121103Z 31007KT M02/M06 A3038 RMK A01 T10191056  RH  076%=      5-min Rain = 0
KDO1 121104Z 31006KT M02/M06 A3038 RMK A01 T10191056  RH  076%=      5-min Rain = 0
KDO1 121105Z 31006KT M02/M06 A3038 RMK A01 T10191056  RH  076%=      5-min Rain = 0
KDO1 121106Z 31006KT M02/M06 A3038 RMK A01 T10191056  RH  076%=      5-min Rain = 0
KDO1 121107Z 32006KT M02/M06 A3038 RMK A01 T10191057  RH  075%=      5-min Rain = 0
KDO1 121108Z 32006KT M02/M06 A3038 RMK A01 T10191057  RH  075%=      5-min Rain = 0
KDO1 121109Z 32006KT M02/M06 A3038 RMK A01 T10191056  RH  075%=      5-min Rain = 0
KDO1 121110Z 32005KT M02/M06 A3038 RMK A01 T10181056  RH  075%=      5-min Rain = 0
KDO1 121111Z 32005KT M02/M06 A3038 RMK A01 T10181056  RH  075%=      5-min Rain = 0
KDO1 121112Z 32005KT M02/M06 A3038 RMK A01 T10181056  RH  075%=      5-min Rain = 0
KDO1 121113Z 32005KT M02/M06 A3038 RMK A01 T10181057  RH  075%=      5-min Rain = 0
KDO1 121114Z 31005KT M02/M06 A3038 RMK A01 T10171057  RH  074%=      5-min Rain = 0
KDO1 121115Z 31004KT M02/M06 A3038 RMK A01 T10171057  RH  074%=      5-min Rain = 0
KDO1 121116Z 30004KT M02/M06 A3038 RMK A01 T10171056  RH  075%=      5-min Rain = 0
KDO1 121117Z 30004KT M02/M05 A3038 RMK A01 T10161053  RH  076%=      5-min Rain = 0
KDO1 121118Z 30004KT M01/M05 A3038 RMK A01 T10141052  RH  076%=      5-min Rain = 0
KDO1 121119Z 30003KT M01/M05 A3038 RMK A01 T10141052  RH  075%=      5-min Rain = 0
KDO1 121120Z 31003KT M01/M05 A3038 RMK A01 T10141052  RH  075%=      5-min Rain = 0
KDO1 121121Z 32003KT M01/M05 A3038 RMK A01 T10141053  RH  075%=      5-min Rain = 0
KDO1 121122Z 32003KT M01/M05 A3038 RMK A01 T10131051  RH  075%=      5-min Rain = 0
KDO1 121123Z 32003KT M01/M06 A3038 RMK A01 T10141055  RH  074%=      5-min Rain = 0
KDO1 121124Z 33003KT M02/M06 A3038 RMK A01 T10151057  RH  073%=      5-min Rain = 0
KDO1 121125Z 35003KT M02/M06 A3038 RMK A01 T10161056  RH  075%=      5-min Rain = 0
KDO1 121126Z 35002KT M02/M06 A3038 RMK A01 T10171056  RH  075%=      5-min Rain = 0
KDO1 121127Z 01002KT M02/M06 A3038 RMK A01 T10181058  RH  074%=      5-min Rain = 0
KDO1 121128Z 01003KT M02/M06 A3038 RMK A01 T10201060  RH  074%=      5-min Rain = 0
KDO1 121129Z 02004KT M02/M06 A3038 RMK A01 T10211058  RH  076%=      5-min Rain = 0
KDO1 121130Z 01004KT M02/M06 A3038 RMK A01 T10211056  RH  076%=      5-min Rain = 0
KDO1 121131Z 01004KT M02/M06 A3038 RMK A01 T10201055  RH  077%=      5-min Rain = 0
KDO1 121132Z 01004KT M02/M06 A3038 RMK A01 T10201055  RH  077%=      5-min Rain = 0
KDO1 121133Z 00004KT M02/M05 A3038 RMK A01 T10201054  RH  077%=      5-min Rain = 0
KDO1 121134Z 00004KT M02/M05 A3038 RMK A01 T10201054  RH  077%=      5-min Rain = 0
KDO1 121135Z 36004KT M02/M05 A3038 RMK A01 T10201054  RH  077%=      5-min Rain = 0
KDO1 121136Z 36004KT M02/M06 A3038 RMK A01 T10201055  RH  077%=      5-min Rain = 0
KDO1 121137Z 35003KT M02/M06 A3038 RMK A01 T10211056  RH  077%=      5-min Rain = 0
KDO1 121138Z 33003KT M02/M06 A3038 RMK A01 T10211056  RH  077%=      5-min Rain = 0
KDO1 121139Z 33003KT M02/M06 A3038 RMK A01 T10221056  RH  078%=      5-min Rain = 0
KDO1 121140Z 32003KT M02/M06 A3038 RMK A01 T10221055  RH  078%=      5-min Rain = 0
KDO1 121141Z 32004KT M02/M06 A3038 RMK A01 T10221055  RH  078%=      5-min Rain = 0
KDO1 121142Z 32004KT M02/M06 A3038 RMK A01 T10221055  RH  078%=      5-min Rain = 0
KDO1 121143Z 32004KT M02/M06 A3038 RMK A01 T10221055  RH  078%=      5-min Rain = 0
KDO1 121144Z 32004KT M02/M05 A3038 RMK A01 T10221054  RH  078%=      5-min Rain = 0
KDO1 121145Z 32004KT M02/M06 A3038 RMK A01 T10221055  RH  078%=      5-min Rain = 0
KDO1 121146Z 33003KT M02/M06 A3038 RMK A01 T10221055  RH  078%=      5-min Rain = 0
KDO1 121147Z 33004KT M02/M05 A3038 RMK A01 T10211054  RH  078%=      5-min Rain = 0
KDO1 121148Z 33004KT M02/M05 A3038 RMK A01 T10211054  RH  078%=      5-min Rain = 0
KDO1 121149Z 33003KT M02/M06 A3038 RMK A01 T10201055  RH  077%=      5-min Rain = 0
KDO1 121150Z 33004KT M02/M06 A3038 RMK A01 T10201057  RH  076%=      5-min Rain = 0
KDO1 121151Z 33004KT M02/M06 A3038 RMK A01 T10211057  RH  076%=      5-min Rain = 0
KDO1 121152Z 33003KT M02/M06 A3038 RMK A01 T10191055  RH  076%=      5-min Rain = 0
KDO1 121153Z 33003KT M02/M05 A3038 RMK A01 T10181054  RH  077%=      5-min Rain = 0
KDO1 121154Z 33003KT M02/M05 A3038 RMK A01 T10171054  RH  076%=      5-min Rain = 0
KDO1 121155Z 33003KT M02/M06 A3038 RMK A01 T10181056  RH  075%=      5-min Rain = 0
KDO1 121156Z 32003KT M02/M06 A3038 RMK A01 T10181057  RH  075%=      5-min Rain = 0
KDO1 121157Z 32003KT M02/M06 A3038 RMK A01 T10191058  RH  074%=      5-min Rain = 0
KDO1 121158Z 31003KT M02/M06 A3038 RMK A01 T10191058  RH  074%=      5-min Rain = 0
KDO1 121159Z 30004KT M02/M06 A3039 RMK A01 T10191058  RH  074%=      5-min Rain = 0
KDO1 121200Z 29005KT M02/M06 A3039 RMK A01 T10191058  RH  074%=      5-min Rain = 0
KDO1 121201Z 29005KT M02/M06 A3039 RMK A01 T10191057  RH  075%=      5-min Rain = 0
KDO1 121202Z 29005KT M02/M05 A3039 RMK A01 T10171053  RH  076%=      5-min Rain = 0
KDO1 121203Z 29006KT M02/M05 A3039 RMK A01 T10161051  RH  077%=      5-min Rain = 0
KDO1 121204Z 29006KT M01/M05 A3039 RMK A01 T10131048  RH  077%=      5-min Rain = 0
KDO1 121205Z 30005KT M01/M05 A3039 RMK A01 T10121047  RH  077%=      5-min Rain = 0
KDO1 121206Z 30004KT M01/M05 A3039 RMK A01 T10111048  RH  076%=      5-min Rain = 0
KDO1 121207Z 30004KT M01/M05 A3039 RMK A01 T10111048  RH  076%=      5-min Rain = 0
KDO1 121208Z 30005KT M01/M05 A3039 RMK A01 T10101048  RH  076%=      5-min Rain = 0
KDO1 121209Z 30005KT M01/M05 A3039 RMK A01 T10111048  RH  076%=      5-min Rain = 0
KDO1 121210Z 30005KT M01/M05 A3039 RMK A01 T10111048  RH  076%=      5-min Rain = 0
KDO1 121211Z 30004KT M01/M05 A3039 RMK A01 T10121049  RH  075%=      5-min Rain = 0
KDO1 121212Z 31003KT M01/M05 A3039 RMK A01 T10131051  RH  075%=      5-min Rain = 0
KDO1 121213Z 29001KT M02/M06 A3039 RMK A01 T10151056  RH  074%=      5-min Rain = 0
KDO1 121214Z 31002KT M02/M06 A3039 RMK A01 T10191060  RH  073%=      5-min Rain = 0
KDO1 121215Z 31002KT M02/M06 A3039 RMK A01 T10231061  RH  075%=      5-min Rain = 0
KDO1 121216Z 31003KT M02/M06 A3039 RMK A01 T10241059  RH  077%=      5-min Rain = 0
KDO1 121217Z 31003KT M03/M06 A3039 RMK A01 T10251058  RH  078%=      5-min Rain = 0
KDO1 121218Z 31002KT M02/M06 A3039 RMK A01 T10241056  RH  079%=      5-min Rain = 0
KDO1 121219Z 13002KT M02/M06 A3039 RMK A01 T10241056  RH  079%=      5-min Rain = 0
KDO1 121220Z 15003KT M03/M06 A3039 RMK A01 T10271062  RH  077%=      5-min Rain = 0
KDO1 121221Z 15002KT M03/M07 A3039 RMK A01 T10301066  RH  077%=      5-min Rain = 0
KDO1 121222Z 30001KT M03/M07 A3039 RMK A01 T10331066  RH  078%=      5-min Rain = 0
KDO1 121223Z 30002KT M03/M06 A3039 RMK A01 T10321060  RH  081%=      5-min Rain = 0
KDO1 121224Z 30002KT M03/M06 A3039 RMK A01 T10291056  RH  082%=      5-min Rain = 0
KDO1 121225Z 29003KT M03/M06 A3039 RMK A01 T10271055  RH  081%=      5-min Rain = 0
KDO1 121226Z 30003KT M02/M05 A3039 RMK A01 T10241053  RH  081%=      5-min Rain = 0
KDO1 121227Z 30001KT M02/M05 A3039 RMK A01 T10231053  RH  080%=      5-min Rain = 0
KDO1 121228Z 00000KT M02/M06 A3039 RMK A01 T10231057  RH  078%=      5-min Rain = 0
KDO1 121229Z 17000KT M03/M06 A3039 RMK A01 T10251059  RH  078%=      5-min Rain = 0
KDO1 121230Z 20001KT M03/M06 A3039 RMK A01 T10251057  RH  079%=      5-min Rain = 0
KDO1 121231Z 27001KT M03/M06 A3039 RMK A01 T10261057  RH  079%=      5-min Rain = 0
KDO1 121232Z 28002KT M03/M06 A3039 RMK A01 T10251055  RH  080%=      5-min Rain = 0
KDO1 121233Z 29002KT M02/M05 A3039 RMK A01 T10241054  RH  080%=      5-min Rain = 0
KDO1 121234Z 28002KT M02/M06 A3039 RMK A01 T10241055  RH  079%=      5-min Rain = 0
KDO1 121235Z 29002KT M02/M06 A3039 RMK A01 T10241055  RH  079%=      5-min Rain = 0
KDO1 121236Z 30003KT M02/M06 A3039 RMK A01 T10241056  RH  079%=      5-min Rain = 0
KDO1 121237Z 31004KT M03/M06 A304 RMK A01 T10251056  RH  079%=      5-min Rain = 0
KDO1 121238Z 31003KT M03/M06 A304 RMK A01 T10251055  RH  080%=      5-min Rain = 0
KDO1 121239Z 32003KT M03/M05 A304 RMK A01 T10251054  RH  080%=      5-min Rain = 0
KDO1 121240Z 32003KT M02/M05 A304 RMK A01 T10241054  RH  080%=      5-min Rain = 0
KDO1 121241Z 32003KT M02/M05 A304 RMK A01 T10241053  RH  080%=      5-min Rain = 0
KDO1 121242Z 32004KT M02/M05 A304 RMK A01 T10231052  RH  080%=      5-min Rain = 0
KDO1 121243Z 32004KT M02/M05 A304 RMK A01 T10221052  RH  080%=      5-min Rain = 0
KDO1 121244Z 32003KT M02/M06 A304 RMK A01 T10231055  RH  078%=      5-min Rain = 0
KDO1 121245Z 32003KT M02/M06 A304 RMK A01 T10241058  RH  078%=      5-min Rain = 0
KDO1 121246Z 32003KT M03/M06 A304 RMK A01 T10261059  RH  078%=      5-min Rain = 0
KDO1 121247Z 33003KT M03/M06 A304 RMK A01 T10271058  RH  079%=      5-min Rain = 0
KDO1 121248Z 33003KT M03/M06 A304 RMK A01 T10261058  RH  079%=      5-min Rain = 0
KDO1 121249Z 33004KT M03/M06 A304 RMK A01 T10251055  RH  080%=      5-min Rain = 0
KDO1 121250Z 31004KT M02/M05 A304 RMK A01 T10221051  RH  080%=      5-min Rain = 0
KDO1 121251Z 31004KT M02/M05 A304 RMK A01 T10191051  RH  079%=      5-min Rain = 0
KDO1 121252Z 31004KT M02/M05 A304 RMK A01 T10181051  RH  078%=      5-min Rain = 0
KDO1 121253Z 31004KT M02/M05 A304 RMK A01 T10171051  RH  078%=      5-min Rain = 0
KDO1 121254Z 32003KT M02/M05 A304 RMK A01 T10171052  RH  077%=      5-min Rain = 0
KDO1 121255Z 32004KT M02/M05 A304 RMK A01 T10161051  RH  077%=      5-min Rain = 0
KDO1 121256Z 33003KT M02/M05 A304 RMK A01 T10161054  RH  075%=      5-min Rain = 0
KDO1 121257Z 32002KT M02/M06 A304 RMK A01 T10211061  RH  074%=      5-min Rain = 0
KDO1 121258Z 33002KT M03/M06 A304 RMK A01 T10251064  RH  074%=      5-min Rain = 0
KDO1 121259Z 33002KT M03/M07 A304 RMK A01 T10291065  RH  076%=      5-min Rain = 0
KDO1 121300Z 34002KT M03/M06 A304 RMK A01 T10311064  RH  078%=      5-min Rain = 0
KDO1 121301Z 33002KT M03/M07 A304 RMK A01 T10331065  RH  078%=      5-min Rain = 0
KDO1 121302Z 33002KT M03/M06 A304 RMK A01 T10331064  RH  080%=      5-min Rain = 0
KDO1 121303Z 33003KT M03/M06 A304 RMK A01 T10331062  RH  081%=      5-min Rain = 0
KDO1 121304Z 36002KT M03/M06 A304 RMK A01 T10331060  RH  081%=      5-min Rain = 0
KDO1 121305Z 00002KT M03/M06 A304 RMK A01 T10311058  RH  081%=      5-min Rain = 0
KDO1 121306Z 00002KT M03/M06 A304 RMK A01 T10301058  RH  081%=      5-min Rain = 0
KDO1 121307Z 00002KT M03/M06 A304 RMK A01 T10301059  RH  080%=      5-min Rain = 0
KDO1 121308Z 01003KT M03/M06 A304 RMK A01 T10291059  RH  080%=      5-min Rain = 0
KDO1 121309Z 01003KT M03/M06 A3041 RMK A01 T10301059  RH  080%=      5-min Rain = 0
KDO1 121310Z 01003KT M03/M06 A3041 RMK A01 T10291058  RH  080%=      5-min Rain = 0
KDO1 121311Z 01003KT M03/M06 A3041 RMK A01 T10291057  RH  081%=      5-min Rain = 0
KDO1 121312Z 01003KT M03/M06 A3041 RMK A01 T10271057  RH  080%=      5-min Rain = 0
KDO1 121313Z 01003KT M03/M06 A3041 RMK A01 T10271057  RH  080%=      5-min Rain = 0
KDO1 121314Z 01003KT M03/M06 A3041 RMK A01 T10271057  RH  080%=      5-min Rain = 0
KDO1 121315Z 36003KT M03/M06 A3041 RMK A01 T10271057  RH  080%=      5-min Rain = 0
KDO1 121316Z 35003KT M03/M06 A3041 RMK A01 T10271057  RH  080%=      5-min Rain = 0
KDO1 121317Z 35003KT M03/M06 A304 RMK A01 T10271056  RH  080%=      5-min Rain = 0
KDO1 121318Z 34004KT M03/M06 A304 RMK A01 T10261056  RH  080%=      5-min Rain = 0
KDO1 121319Z 34004KT M03/M06 A304 RMK A01 T10261057  RH  079%=      5-min Rain = 0
KDO1 121320Z 33003KT M03/M06 A304 RMK A01 T10261058  RH  079%=      5-min Rain = 0
KDO1 121321Z 34004KT M03/M06 A304 RMK A01 T10271059  RH  079%=      5-min Rain = 0
KDO1 121322Z 34004KT M03/M06 A304 RMK A01 T10281060  RH  079%=      5-min Rain = 0
KDO1 121323Z 34004KT M03/M06 A3041 RMK A01 T10291060  RH  079%=      5-min Rain = 0
KDO1 121324Z 34003KT M03/M06 A3041 RMK A01 T10291060  RH  079%=      5-min Rain = 0
KDO1 121325Z 34003KT M03/M06 A3041 RMK A01 T10281059  RH  079%=      5-min Rain = 0
KDO1 121326Z 34003KT M03/M06 A3041 RMK A01 T10291059  RH  080%=      5-min Rain = 0
KDO1 121327Z 35003KT M03/M06 A3041 RMK A01 T10281058  RH  080%=      5-min Rain = 0
KDO1 121328Z 00003KT M03/M06 A3041 RMK A01 T10271058  RH  080%=      5-min Rain = 0
KDO1 121329Z 00002KT M03/M06 A3041 RMK A01 T10261057  RH  080%=      5-min Rain = 0
KDO1 121330Z 01002KT M03/M06 A3041 RMK A01 T10251056  RH  079%=      5-min Rain = 0
KDO1 121331Z 04000KT M02/M06 A3041 RMK A01 T10241056  RH  079%=      5-min Rain = 0
KDO1 121332Z 00000KT M02/M06 A3041 RMK A01 T10231055  RH  079%=      5-min Rain = 0
KDO1 121333Z 00000KT M02/M05 A3041 RMK A01 T10211054  RH  078%=      5-min Rain = 0
KDO1 121334Z 02000KT M02/M05 A3041 RMK A01 T10201054  RH  077%=      5-min Rain = 0
KDO1 121335Z 01001KT M02/M05 A3041 RMK A01 T10181054  RH  077%=      5-min Rain = 0
KDO1 121336Z 01002KT M02/M05 A3041 RMK A01 T10181054  RH  076%=      5-min Rain = 0
KDO1 121337Z 00002KT M02/M05 A3041 RMK A01 T10171053  RH  076%=      5-min Rain = 0
KDO1 121338Z 01002KT M02/M05 A3041 RMK A01 T10161053  RH  076%=      5-min Rain = 0
KDO1 121339Z 00001KT M02/M05 A3041 RMK A01 T10161052  RH  076%=      5-min Rain = 0
KDO1 121340Z 00002KT M02/M05 A3041 RMK A01 T10151051  RH  076%=      5-min Rain = 0
KDO1 121341Z 01002KT M01/M05 A3041 RMK A01 T10141051  RH  076%=      5-min Rain = 0
KDO1 121342Z 01003KT M01/M05 A3041 RMK A01 T10131051  RH  075%=      5-min Rain = 0
KDO1 121343Z 01003KT M01/M05 A3041 RMK A01 T10131051  RH  075%=      5-min Rain = 0
KDO1 121344Z 01002KT M01/M05 A3041 RMK A01 T10131051  RH  075%=      5-min Rain = 0
KDO1 121345Z 02002KT M01/M05 A3041 RMK A01 T10121051  RH  075%=      5-min Rain = 0
KDO1 121346Z 01003KT M01/M05 A3041 RMK A01 T10111050  RH  075%=      5-min Rain = 0
KDO1 121347Z 02002KT M01/M05 A3041 RMK A01 T10111049  RH  075%=      5-min Rain = 0
KDO1 121348Z 03002KT M01/M05 A3041 RMK A01 T10091048  RH  075%=      5-min Rain = 0
KDO1 121349Z 05000KT M01/M05 A3041 RMK A01 T10091047  RH  075%=      5-min Rain = 0
KDO1 121350Z 06000KT M01/M05 A3041 RMK A01 T10061047  RH  074%=      5-min Rain = 0
KDO1 121351Z 06000KT M01/M05 A3041 RMK A01 T10051048  RH  072%=      5-min Rain = 0
KDO1 121352Z 07000KT M00/M05 A3041 RMK A01 T10031049  RH  071%=      5-min Rain = 0
KDO1 121353Z 08001KT M00/M05 A3041 RMK A01 T10021049  RH  071%=      5-min Rain = 0
KDO1 121354Z 09000KT M00/M05 A3041 RMK A01 T10011048  RH  071%=      5-min Rain = 0
KDO1 121355Z 00000KT 00/05 A3041 RMK A01 T00-00-47  RH  071%=      5-min Rain = 0
KDO1 121356Z 00000KT 00/M05 A3041 RMK A01 T00011046  RH  070%=      5-min Rain = 0
KDO1 121357Z 35000KT 00/M05 A3041 RMK A01 T00021046  RH  070%=      5-min Rain = 0
KDO1 121358Z 35001KT 00/M05 A3041 RMK A01 T00031045  RH  070%=      5-min Rain = 0
KDO1 121359Z 35001KT 00/M04 A3041 RMK A01 T00031044  RH  070%=      5-min Rain = 0
KDO1 121400Z 34002KT 00/M04 A3041 RMK A01 T00031044  RH  070%=      5-min Rain = 0
KDO1 121401Z 34002KT 00/M04 A3041 RMK A01 T00031044  RH  071%=      5-min Rain = 0
KDO1 121402Z 34002KT 00/M04 A3041 RMK A01 T00041043  RH  071%=      5-min Rain = 0
KDO1 121403Z 35003KT 00/M04 A3041 RMK A01 T00041042  RH  071%=      5-min Rain = 0
KDO1 121404Z 35002KT 01/M04 A3041 RMK A01 T00061041  RH  071%=      5-min Rain = 0
KDO1 121405Z 35002KT 01/M04 A3041 RMK A01 T00071040  RH  071%=      5-min Rain = 0
KDO1 121406Z 34003KT 01/M04 A3041 RMK A01 T00091039  RH  070%=      5-min Rain = 0
KDO1 121407Z 34003KT 01/M04 A3041 RMK A01 T00111038  RH  070%=      5-min Rain = 0
KDO1 121408Z 33003KT 01/M04 A3041 RMK A01 T00131037  RH  069%=      5-min Rain = 0
KDO1 121409Z 32003KT 02/M04 A3041 RMK A01 T00151036  RH  069%=      5-min Rain = 0
KDO1 121410Z 31002KT 02/M04 A3041 RMK A01 T00171035  RH  069%=      5-min Rain = 0
KDO1 121411Z 31003KT 02/M03 A3041 RMK A01 T00191034  RH  068%=      5-min Rain = 0
KDO1 121412Z 30002KT 02/M03 A3041 RMK A01 T00211033  RH  067%=      5-min Rain = 0
KDO1 121413Z 31002KT 02/M03 A3041 RMK A01 T00241031  RH  067%=      5-min Rain = 0
KDO1 121414Z 31001KT 03/M03 A3041 RMK A01 T00271029  RH  066%=      5-min Rain = 0
KDO1 121415Z 34001KT 03/M03 A3041 RMK A01 T00301029  RH  065%=      5-min Rain = 0
KDO1 121416Z 00001KT 03/M03 A3041 RMK A01 T00321030  RH  064%=      5-min Rain = 0
KDO1 121417Z 06002KT 03/M03 A3042 RMK A01 T00331030  RH  063%=      5-min Rain = 0
KDO1 121418Z 07002KT 03/M03 A3042 RMK A01 T00331034  RH  062%=      5-min Rain = 0
KDO1 121419Z 07002KT 03/M04 A3042 RMK A01 T00301035  RH  062%=      5-min Rain = 0
KDO1 121420Z 07001KT 03/M03 A3042 RMK A01 T00291034  RH  063%=      5-min Rain = 0
KDO1 121421Z 00000KT 03/M03 A3042 RMK A01 T00291034  RH  063%=      5-min Rain = 0
KDO1 121422Z 16000KT 03/M03 A3042 RMK A01 T00311032  RH  063%=      5-min Rain = 0
KDO1 121423Z 17000KT 03/M03 A3042 RMK A01 T00331031  RH  063%=      5-min Rain = 0
KDO1 121424Z 16002KT 04/M03 A3042 RMK A01 T00351031  RH  062%=      5-min Rain = 0
KDO1 121425Z 16001KT 04/M03 A3042 RMK A01 T00361031  RH  062%=      5-min Rain = 0
KDO1 121426Z 16001KT 04/M03 A3042 RMK A01 T00371031  RH  061%=      5-min Rain = 0
KDO1 121427Z 16001KT 04/M03 A3042 RMK A01 T00381031  RH  061%=      5-min Rain = 0
KDO1 121428Z 18001KT 04/M03 A3042 RMK A01 T00391031  RH  060%=      5-min Rain = 0
KDO1 121429Z 18002KT 04/M03 A3042 RMK A01 T00391030  RH  061%=      5-min Rain = 0
KDO1 121430Z 20002KT 04/M03 A3042 RMK A01 T00401030  RH  061%=      5-min Rain = 0
KDO1 121431Z 22002KT 04/M03 A3042 RMK A01 T00401029  RH  061%=      5-min Rain = 0
KDO1 121432Z 20002KT 04/M03 A3042 RMK A01 T00401030  RH  061%=      5-min Rain = 0
KDO1 121433Z 20001KT 04/M03 A3042 RMK A01 T00391031  RH  060%=      5-min Rain = 0
KDO1 121434Z 22002KT 04/M03 A3042 RMK A01 T00391030  RH  061%=      5-min Rain = 0
KDO1 121435Z 21001KT 04/M03 A3042 RMK A01 T00391030  RH  061%=      5-min Rain = 0
KDO1 121436Z 21001KT 04/M03 A3042 RMK A01 T00391029  RH  061%=      5-min Rain = 0
KDO1 121437Z 20001KT 04/M03 A3042 RMK A01 T00401029  RH  061%=      5-min Rain = 0
KDO1 121438Z 20001KT 04/M03 A3042 RMK A01 T00401029  RH  061%=      5-min Rain = 0
KDO1 121439Z 20001KT 04/M03 A3042 RMK A01 T00401028  RH  061%=      5-min Rain = 0
KDO1 121440Z 19002KT 04/M03 A3042 RMK A01 T00401029  RH  061%=      5-min Rain = 0
KDO1 121441Z 21003KT 04/M03 A3042 RMK A01 T00421027  RH  061%=      5-min Rain = 0
KDO1 121442Z 20003KT 04/M03 A3042 RMK A01 T00421028  RH  060%=      5-min Rain = 0
KDO1 121443Z 20004KT 04/M03 A3042 RMK A01 T00441027  RH  060%=      5-min Rain = 0
KDO1 121444Z 20004KT 04/M03 A3042 RMK A01 T00441028  RH  060%=      5-min Rain = 0
KDO1 121445Z 20004KT 04/M03 A3042 RMK A01 T00441027  RH  060%=      5-min Rain = 0
KDO1 121446Z 20003KT 04/M03 A3042 RMK A01 T00441029  RH  059%=      5-min Rain = 0
KDO1 121447Z 20003KT 04/M03 A3042 RMK A01 T00431029  RH  060%=      5-min Rain = 0
KDO1 121448Z 19003KT 04/M03 A3042 RMK A01 T00441028  RH  060%=      5-min Rain = 0
KDO1 121449Z 19003KT 05/M03 A3042 RMK A01 T00451028  RH  059%=      5-min Rain = 0
KDO1 121450Z 21003KT 05/M03 A3042 RMK A01 T00461028  RH  059%=      5-min Rain = 0
KDO1 121451Z 20002KT 05/M03 A3042 RMK A01 T00471028  RH  058%=      5-min Rain = 0
KDO1 121452Z 21002KT 05/M03 A3042 RMK A01 T00461028  RH  058%=      5-min Rain = 0
KDO1 121453Z 20002KT 05/M03 A3042 RMK A01 T00461028  RH  058%=      5-min Rain = 0
KDO1 121454Z 19003KT 05/M03 A3042 RMK A01 T00471027  RH  059%=      5-min Rain = 0
KDO1 121455Z 19003KT 05/M03 A3042 RMK A01 T00491026  RH  058%=      5-min Rain = 0
KDO1 121456Z 19003KT 05/M03 A3042 RMK A01 T00511026  RH  057%=      5-min Rain = 0
KDO1 121457Z 20002KT 05/M03 A3042 RMK A01 T00511027  RH  057%=      5-min Rain = 0
KDO1 121458Z 20003KT 05/M03 A3042 RMK A01 T00531025  RH  057%=      5-min Rain = 0
KDO1 121459Z 20004KT 05/M03 A3042 RMK A01 T00531026  RH  056%=      5-min Rain = 0
KDO1 121500Z 21004KT 05/M03 A3042 RMK A01 T00541026  RH  056%=      5-min Rain = 0
KDO1 121501Z 21004KT 05/M03 A3042 RMK A01 T00541026  RH  056%=      5-min Rain = 0
KDO1 121502Z 20004KT 06/M03 A3042 RMK A01 T00561025  RH  056%=      5-min Rain = 0
KDO1 121503Z 19004KT 06/M03 A3042 RMK A01 T00561027  RH  055%=      5-min Rain = 0
KDO1 121504Z 18003KT 06/M03 A3042 RMK A01 T00551028  RH  055%=      5-min Rain = 0
KDO1 121505Z 24002KT 06/M03 A3042 RMK A01 T00551026  RH  056%=      5-min Rain = 0
KDO1 121506Z 24001KT 06/M03 A3042 RMK A01 T00561027  RH  055%=      5-min Rain = 0
KDO1 121507Z 21000KT 06/M03 A3042 RMK A01 T00561026  RH  056%=      5-min Rain = 0
KDO1 121508Z 23002KT 06/M03 A3042 RMK A01 T00571025  RH  055%=      5-min Rain = 0
KDO1 121509Z 22002KT 06/M03 A3042 RMK A01 T00581026  RH  055%=      5-min Rain = 0
KDO1 121510Z 22001KT 06/M03 A3042 RMK A01 T00591026  RH  055%=      5-min Rain = 0
KDO1 121511Z 21001KT 06/M03 A3042 RMK A01 T00591026  RH  054%=      5-min Rain = 0
KDO1 121512Z 24001KT 06/M03 A3042 RMK A01 T00591025  RH  055%=      5-min Rain = 0
KDO1 121513Z 24001KT 06/M03 A3042 RMK A01 T00601025  RH  054%=      5-min Rain = 0
KDO1 121514Z 25000KT 06/M02 A3042 RMK A01 T00611024  RH  054%=      5-min Rain = 0
KDO1 121515Z 00000KT 06/M03 A3042 RMK A01 T00621025  RH  054%=      5-min Rain = 0
KDO1 121516Z 00000KT 06/M02 A3042 RMK A01 T00631024  RH  054%=      5-min Rain = 0
KDO1 121517Z 00000KT 07/M02 A3042 RMK A01 T00651024  RH  053%=      5-min Rain = 0
KDO1 121518Z 30000KT 07/M02 A3042 RMK A01 T00681021  RH  053%=      5-min Rain = 0
KDO1 121519Z 33001KT 07/M03 A3042 RMK A01 T00681025  RH  052%=      5-min Rain = 0
KDO1 121520Z 33001KT 07/M03 A3042 RMK A01 T00661025  RH  052%=      5-min Rain = 0
KDO1 121521Z 31001KT 07/M03 A3042 RMK A01 T00651025  RH  052%=      5-min Rain = 0
KDO1 121522Z 30001KT 06/M02 A3042 RMK A01 T00641024  RH  053%=      5-min Rain = 0
KDO1 121523Z 28001KT 06/M03 A3042 RMK A01 T00641025  RH  053%=      5-min Rain = 0
KDO1 121524Z 27000KT 07/M02 A3042 RMK A01 T00651024  RH  053%=      5-min Rain = 0
KDO1 121525Z 10000KT 07/M02 A3042 RMK A01 T00661023  RH  053%=      5-min Rain = 0
KDO1 121526Z 09000KT 07/M02 A3042 RMK A01 T00681022  RH  053%=      5-min Rain = 0
KDO1 121527Z 11000KT 07/M02 A3042 RMK A01 T00701023  RH  052%=      5-min Rain = 0
KDO1 121528Z 04001KT 07/M02 A3042 RMK A01 T00711023  RH  051%=      5-min Rain = 0
KDO1 121529Z 03001KT 07/M02 A3042 RMK A01 T00711024  RH  051%=      5-min Rain = 0
KDO1 121530Z 04001KT 07/M02 A3042 RMK A01 T00701024  RH  051%=      5-min Rain = 0
KDO1 121531Z 00000KT 07/M02 A3042 RMK A01 T00691024  RH  052%=      5-min Rain = 0
KDO1 121532Z 14001KT 07/M02 A3042 RMK A01 T00691022  RH  052%=      5-min Rain = 0
KDO1 121533Z 15002KT 07/M02 A3042 RMK A01 T00721021  RH  051%=      5-min Rain = 0
KDO1 121534Z 18001KT 08/M02 A3042 RMK A01 T00751021  RH  050%=      5-min Rain = 0
KDO1 121535Z 14001KT 08/M02 A3042 RMK A01 T00771021  RH  050%=      5-min Rain = 0
KDO1 121536Z 15002KT 08/M02 A3042 RMK A01 T00781021  RH  049%=      5-min Rain = 0
KDO1 121537Z 14001KT 08/M02 A3042 RMK A01 T00791021  RH  049%=      5-min Rain = 0
KDO1 121538Z 06003KT 08/M02 A3042 RMK A01 T00811021  RH  049%=      5-min Rain = 0
KDO1 121539Z 11001KT 08/M02 A3042 RMK A01 T00821023  RH  047%=      5-min Rain = 0
KDO1 121540Z 09002KT 08/M02 A3042 RMK A01 T00811023  RH  048%=      5-min Rain = 0
KDO1 121541Z 11003KT 08/M02 A3042 RMK A01 T00811023  RH  048%=      5-min Rain = 0
KDO1 121542Z 03002KT 08/M02 A3042 RMK A01 T00811022  RH  048%=      5-min Rain = 0
KDO1 121543Z 00002KT 08/M02 A3042 RMK A01 T00821023  RH  047%=      5-min Rain = 0
KDO1 121544Z 35002KT 08/M02 A3042 RMK A01 T00811024  RH  048%=      5-min Rain = 0
KDO1 121545Z 34003KT 08/M03 A3042 RMK A01 T00791027  RH  047%=      5-min Rain = 0
KDO1 121546Z 33003KT 08/M03 A3042 RMK A01 T00771027  RH  048%=      5-min Rain = 0
KDO1 121547Z 33002KT 08/M03 A3042 RMK A01 T00781025  RH  048%=      5-min Rain = 0
KDO1 121548Z 33001KT 08/M03 A3042 RMK A01 T00781025  RH  048%=      5-min Rain = 0
KDO1 121549Z 07003KT 08/M02 A3042 RMK A01 T00801023  RH  048%=      5-min Rain = 0
KDO1 121550Z 08003KT 08/M02 A3042 RMK A01 T00821024  RH  047%=      5-min Rain = 0
KDO1 121551Z 07002KT 08/M03 A3042 RMK A01 T00831026  RH  046%=      5-min Rain = 0
KDO1 121552Z 06002KT 08/M02 A3042 RMK A01 T00831024  RH  047%=      5-min Rain = 0
KDO1 121553Z 06003KT 08/M03 A3042 RMK A01 T00831026  RH  046%=      5-min Rain = 0
KDO1 121554Z 08002KT 08/M03 A3042 RMK A01 T00821026  RH  047%=      5-min Rain = 0
KDO1 121555Z 00000KT 08/M03 A3042 RMK A01 T00811026  RH  047%=      5-min Rain = 0
KDO1 121556Z 12000KT 08/M03 A3042 RMK A01 T00811025  RH  047%=      5-min Rain = 0
KDO1 121557Z 35001KT 08/M02 A3042 RMK A01 T00831022  RH  047%=      5-min Rain = 0
KDO1 121558Z 35001KT 09/M02 A3042 RMK A01 T00851024  RH  046%=      5-min Rain = 0
KDO1 121559Z 00000KT 09/M03 A3042 RMK A01 T00851025  RH  046%=      5-min Rain = 0
KDO1 121600Z 00000KT 09/M02 A3042 RMK A01 T00871024  RH  046%=      5-min Rain = 0
KDO1 121601Z 00000KT 09/M02 A3042 RMK A01 T00881024  RH  045%=      5-min Rain = 0
KDO1 121602Z 10000KT 09/M02 A3042 RMK A01 T00891024  RH  045%=      5-min Rain = 0
KDO1 121603Z 11001KT 09/M02 A3042 RMK A01 T00901023  RH  045%=      5-min Rain = 0
KDO1 121604Z 17001KT 09/M02 A3042 RMK A01 T00901023  RH  045%=      5-min Rain = 0
KDO1 121605Z 13000KT 09/M03 A3042 RMK A01 T00891025  RH  045%=      5-min Rain = 0
KDO1 121606Z 17002KT 09/M02 A3042 RMK A01 T00891024  RH  045%=      5-min Rain = 0
KDO1 121607Z 16003KT 09/M03 A3042 RMK A01 T00881025  RH  045%=      5-min Rain = 0
KDO1 121608Z 16003KT 09/M03 A3042 RMK A01 T00871026  RH  045%=      5-min Rain = 0
KDO1 121609Z 15002KT 09/M03 A3042 RMK A01 T00871025  RH  045%=      5-min Rain = 0
KDO1 121610Z 17002KT 09/M03 A3042 RMK A01 T00871025  RH  045%=      5-min Rain = 0
KDO1 121611Z 12001KT 09/M03 A3042 RMK A01 T00881025  RH  045%=      5-min Rain = 0
KDO1 121612Z 04002KT 09/M03 A3042 RMK A01 T00891025  RH  045%=      5-min Rain = 0
KDO1 121613Z 04001KT 09/M03 A3042 RMK A01 T00901026  RH  044%=      5-min Rain = 0
KDO1 121614Z 11002KT 09/M03 A3042 RMK A01 T00891026  RH  044%=      5-min Rain = 0
KDO1 121615Z 10005KT 09/M03 A3042 RMK A01 T00911025  RH  044%=      5-min Rain = 0
KDO1 121616Z 12004KT 09/M03 A3042 RMK A01 T00921026  RH  043%=      5-min Rain = 0
KDO1 121617Z 11002KT 09/M03 A3042 RMK A01 T00911027  RH  044%=      5-min Rain = 0
KDO1 121618Z 12000KT 09/M03 A3042 RMK A01 T00911026  RH  044%=      5-min Rain = 0
KDO1 121619Z 16003KT 09/M03 A3042 RMK A01 T00921027  RH  043%=      5-min Rain = 0
KDO1 121620Z 19004KT 09/M03 A3042 RMK A01 T00921026  RH  043%=      5-min Rain = 0
KDO1 121621Z 17003KT 09/M03 A3042 RMK A01 T00921027  RH  043%=      5-min Rain = 0
KDO1 121622Z 16003KT 09/M03 A3042 RMK A01 T00901028  RH  043%=      5-min Rain = 0
KDO1 121623Z 14002KT 09/M03 A3042 RMK A01 T00891028  RH  044%=      5-min Rain = 0
KDO1 121624Z 14001KT 09/M03 A3042 RMK A01 T00891027  RH  044%=      5-min Rain = 0
KDO1 121625Z 18001KT 09/M03 A3042 RMK A01 T00901027  RH  044%=      5-min Rain = 0
KDO1 121626Z 11002KT 09/M03 A3042 RMK A01 T00901026  RH  044%=      5-min Rain = 0
KDO1 121627Z 17002KT 09/M03 A3042 RMK A01 T00921025  RH  044%=      5-min Rain = 0
KDO1 121628Z 17003KT 09/M02 A3042 RMK A01 T00941023  RH  044%=      5-min Rain = 0
KDO1 121629Z 17004KT 10/M03 A3042 RMK A01 T00961025  RH  043%=      5-min Rain = 0
KDO1 121630Z 19004KT 09/M03 A3042 RMK A01 T00941026  RH  043%=      5-min Rain = 0
KDO1 121631Z 20004KT 09/M02 A3042 RMK A01 T00941024  RH  043%=      5-min Rain = 0
KDO1 121632Z 19002KT 09/M03 A3042 RMK A01 T00941025  RH  043%=      5-min Rain = 0
KDO1 121633Z 19002KT 09/M03 A3042 RMK A01 T00941025  RH  043%=      5-min Rain = 0
KDO1 121634Z 16002KT 10/M02 A3042 RMK A01 T00951024  RH  043%=      5-min Rain = 0
KDO1 121635Z 15001KT 10/M02 A3042 RMK A01 T00971024  RH  043%=      5-min Rain = 0
KDO1 121636Z 19005KT 10/M02 A3042 RMK A01 T00981024  RH  042%=      5-min Rain = 0
KDO1 121637Z 20004KT 10/M03 A3042 RMK A01 T00991025  RH  042%=      5-min Rain = 0
KDO1 121638Z 21002KT 10/M03 A3042 RMK A01 T00961027  RH  042%=      5-min Rain = 0
KDO1 121639Z 19003KT 09/M03 A3042 RMK A01 T00941026  RH  043%=      5-min Rain = 0
KDO1 121640Z 17001KT 09/M03 A3042 RMK A01 T00941026  RH  043%=      5-min Rain = 0
KDO1 121641Z 18002KT 09/M03 A3042 RMK A01 T00941025  RH  043%=      5-min Rain = 0
KDO1 121642Z 19003KT 10/M03 A3042 RMK A01 T00951026  RH  043%=      5-min Rain = 0
KDO1 121643Z 19001KT 09/M03 A3042 RMK A01 T00941026  RH  043%=      5-min Rain = 0
KDO1 121644Z 17001KT 10/M03 A3042 RMK A01 T00951026  RH  043%=      5-min Rain = 0
KDO1 121645Z 20001KT 10/M02 A3042 RMK A01 T00951024  RH  043%=      5-min Rain = 0
KDO1 121646Z 21003KT 10/M02 A3042 RMK A01 T00971024  RH  043%=      5-min Rain = 0
KDO1 121647Z 21002KT 10/M03 A3042 RMK A01 T00971025  RH  042%=      5-min Rain = 0
KDO1 121648Z 21004KT 10/M03 A3042 RMK A01 T00971025  RH  042%=      5-min Rain = 0
KDO1 121649Z 21004KT 10/M03 A3042 RMK A01 T00961026  RH  042%=      5-min Rain = 0
KDO1 121650Z 21003KT 10/M03 A3042 RMK A01 T00951026  RH  043%=      5-min Rain = 0
KDO1 121651Z 20004KT 09/M03 A3042 RMK A01 T00941026  RH  043%=      5-min Rain = 0
KDO1 121652Z 20002KT 09/M03 A3042 RMK A01 T00941026  RH  043%=      5-min Rain = 0
KDO1 121653Z 19001KT 09/M03 A3042 RMK A01 T00941026  RH  043%=      5-min Rain = 0
KDO1 121654Z 24002KT 10/M03 A3042 RMK A01 T00951025  RH  043%=      5-min Rain = 0
KDO1 121655Z 25001KT 10/M02 A3041 RMK A01 T00971023  RH  043%=      5-min Rain = 0
KDO1 121656Z 00000KT 10/M02 A3041 RMK A01 T00991024  RH  042%=      5-min Rain = 0
KDO1 121657Z 00000KT 10/M03 A3041 RMK A01 T00991025  RH  042%=      5-min Rain = 0
KDO1 121658Z 03000KT 10/M02 A3041 RMK A01 T01001024  RH  042%=      5-min Rain = 0
KDO1 121659Z 01001KT 10/M02 A3041 RMK A01 T01011024  RH  041%=      5-min Rain = 0
KDO1 121700Z 02000KT 10/M03 A3041 RMK A01 T01001025  RH  041%=      5-min Rain = 0
KDO1 121701Z 13001KT 10/M02 A3041 RMK A01 T01001023  RH  042%=      5-min Rain = 0
KDO1 121702Z 12003KT 10/M03 A3041 RMK A01 T01011025  RH  041%=      5-min Rain = 0
KDO1 121703Z 19003KT 10/M02 A3041 RMK A01 T01011024  RH  042%=      5-min Rain = 0
KDO1 121704Z 19003KT 10/M03 A3041 RMK A01 T01021025  RH  041%=      5-min Rain = 0
KDO1 121705Z 18003KT 10/M03 A3041 RMK A01 T01001026  RH  041%=      5-min Rain = 0
KDO1 121706Z 24005KT 10/M02 A3041 RMK A01 T00991024  RH  042%=      5-min Rain = 0
KDO1 121707Z 23004KT 10/M02 A3041 RMK A01 T00991024  RH  042%=      5-min Rain = 0
KDO1 121708Z 21003KT 10/M03 A3041 RMK A01 T00981025  RH  042%=      5-min Rain = 0
KDO1 121709Z 18003KT 10/M03 A3041 RMK A01 T00991025  RH  042%=      5-min Rain = 0
KDO1 121710Z 16002KT 10/M03 A3041 RMK A01 T00991025  RH  042%=      5-min Rain = 0
KDO1 121711Z 14001KT 10/M02 A3041 RMK A01 T01001024  RH  042%=      5-min Rain = 0
KDO1 121712Z 17004KT 10/M02 A3041 RMK A01 T01011024  RH  041%=      5-min Rain = 0
KDO1 121713Z 24004KT 10/M02 A3041 RMK A01 T01041022  RH  041%=      5-min Rain = 0
KDO1 121714Z 24005KT 11/M02 A3041 RMK A01 T01051024  RH  041%=      5-min Rain = 0
KDO1 121715Z 24005KT 10/M03 A3041 RMK A01 T01011027  RH  041%=      5-min Rain = 0
KDO1 121716Z 26004KT 10/M03 A3041 RMK A01 T00981028  RH  041%=      5-min Rain = 0
KDO1 121717Z 25003KT 10/M03 A3041 RMK A01 T00961029  RH  041%=      5-min Rain = 0
KDO1 121718Z 25003KT 10/M03 A3041 RMK A01 T00951028  RH  042%=      5-min Rain = 0
KDO1 121719Z 23003KT 10/M03 A304 RMK A01 T00961025  RH  043%=      5-min Rain = 0
KDO1 121720Z 19001KT 10/M03 A304 RMK A01 T00981025  RH  042%=      5-min Rain = 0
KDO1 121721Z 20003KT 10/M03 A304 RMK A01 T00991026  RH  042%=      5-min Rain = 0
KDO1 121722Z 18004KT 10/M03 A304 RMK A01 T01001026  RH  041%=      5-min Rain = 0
KDO1 121723Z 18003KT 10/M02 A304 RMK A01 T01001024  RH  042%=      5-min Rain = 0
KDO1 121724Z 20002KT 10/M02 A304 RMK A01 T01031023  RH  041%=      5-min Rain = 0
KDO1 121725Z 24003KT 10/M02 A304 RMK A01 T01041023  RH  041%=      5-min Rain = 0
KDO1 121726Z 33001KT 11/M02 A304 RMK A01 T01071021  RH  041%=      5-min Rain = 0
KDO1 121727Z 34003KT 11/M02 A304 RMK A01 T01081023  RH  040%=      5-min Rain = 0
KDO1 121728Z 32003KT 11/M02 A304 RMK A01 T01071024  RH  040%=      5-min Rain = 0
KDO1 121729Z 33002KT 11/M02 A304 RMK A01 T01051024  RH  040%=      5-min Rain = 0
KDO1 121730Z 03001KT 11/M02 A304 RMK A01 T01051023  RH  041%=      5-min Rain = 0
KDO1 121731Z 02001KT 11/M02 A304 RMK A01 T01071024  RH  040%=      5-min Rain = 0
KDO1 121732Z 04000KT 11/M02 A304 RMK A01 T01071024  RH  040%=      5-min Rain = 0
KDO1 121733Z 12001KT 11/M02 A304 RMK A01 T01071024  RH  040%=      5-min Rain = 0
KDO1 121734Z 09003KT 11/M02 A304 RMK A01 T01101022  RH  040%=      5-min Rain = 0
KDO1 121735Z 10004KT 11/M02 A304 RMK A01 T01111024  RH  039%=      5-min Rain = 0
KDO1 121736Z 16003KT 11/M03 A304 RMK A01 T01111025  RH  039%=      5-min Rain = 0
KDO1 121737Z 21003KT 11/M03 A304 RMK A01 T01101025  RH  039%=      5-min Rain = 0
KDO1 121738Z 19000KT 11/M02 A304 RMK A01 T01121022  RH  039%=      5-min Rain = 0
KDO1 121739Z 18001KT 11/M02 A304 RMK A01 T01141023  RH  038%=      5-min Rain = 0
KDO1 121740Z 26002KT 12/M02 A304 RMK A01 T01151022  RH  038%=      5-min Rain = 0
KDO1 121741Z 23003KT 12/M02 A3039 RMK A01 T01161023  RH  038%=      5-min Rain = 0
KDO1 121742Z 20001KT 12/M02 A3039 RMK A01 T01161024  RH  038%=      5-min Rain = 0
KDO1 121743Z 18003KT 11/M03 A3039 RMK A01 T01131025  RH  038%=      5-min Rain = 0
KDO1 121744Z 20002KT 11/M02 A3039 RMK A01 T01131022  RH  039%=      5-min Rain = 0
KDO1 121745Z 18004KT 11/M02 A3039 RMK A01 T01141022  RH  039%=      5-min Rain = 0
KDO1 121746Z 18005KT 11/M02 A3039 RMK A01 T01131024  RH  038%=      5-min Rain = 0
KDO1 121747Z 17005KT 11/M02 A3039 RMK A01 T01121023  RH  039%=      5-min Rain = 0
KDO1 121748Z 17006KT 11/M02 A3039 RMK A01 T01121023  RH  039%=      5-min Rain = 0
KDO1 121749Z 19006KT 11/M02 A3039 RMK A01 T01131023  RH  039%=      5-min Rain = 0
KDO1 121750Z 18007KT 11/M02 A3039 RMK A01 T01131023  RH  039%=      5-min Rain = 0
KDO1 121751Z 16004KT 12/M02 A3039 RMK A01 T01161021  RH  039%=      5-min Rain = 0
KDO1 121752Z 17003KT 12/M02 A3039 RMK A01 T01181023  RH  037%=      5-min Rain = 0
KDO1 121753Z 15004KT 12/M02 A3039 RMK A01 T01171023  RH  038%=      5-min Rain = 0
KDO1 121754Z 17004KT 12/M02 A3039 RMK A01 T01171024  RH  037%=      5-min Rain = 0
KDO1 121755Z 16004KT 12/M02 A3039 RMK A01 T01161024  RH  038%=      5-min Rain = 0
KDO1 121756Z 11006KT 12/M02 A3039 RMK A01 T01161024  RH  038%=      5-min Rain = 0
KDO1 121757Z 14004KT 11/M03 A3039 RMK A01 T01141026  RH  038%=      5-min Rain = 0
KDO1 121758Z 18003KT 11/M03 A3039 RMK A01 T01121026  RH  038%=      5-min Rain = 0
KDO1 121759Z 20002KT 11/M03 A3039 RMK A01 T01111026  RH  038%=      5-min Rain = 0
KDO1 121800Z 24001KT 11/M03 A3039 RMK A01 T01101027  RH  038%=      5-min Rain = 0
KDO1 121801Z 21001KT 11/M03 A3039 RMK A01 T01101026  RH  038%=      5-min Rain = 0
KDO1 121802Z 18000KT 11/M03 A3039 RMK A01 T01101027  RH  038%=      5-min Rain = 0
KDO1 121803Z 18003KT 11/M03 A3038 RMK A01 T01111026  RH  038%=      5-min Rain = 0
KDO1 121804Z 12001KT 11/M03 A3038 RMK A01 T01121027  RH  038%=      5-min Rain = 0
KDO1 121805Z 12004KT 11/M03 A3038 RMK A01 T01131026  RH  038%=      5-min Rain = 0
KDO1 121806Z 13002KT 11/M03 A3038 RMK A01 T01131026  RH  038%=      5-min Rain = 0
KDO1 121807Z 14001KT 11/M03 A3038 RMK A01 T01131026  RH  038%=      5-min Rain = 0
KDO1 121808Z 21001KT 11/M03 A3038 RMK A01 T01131027  RH  038%=      5-min Rain = 0
KDO1 121809Z 20002KT 11/M03 A3038 RMK A01 T01131026  RH  038%=      5-min Rain = 0
KDO1 121810Z 21001KT 11/M03 A3038 RMK A01 T01121026  RH  038%=      5-min Rain = 0
KDO1 121811Z 16002KT 11/M03 A3038 RMK A01 T01121027  RH  038%=      5-min Rain = 0
KDO1 121812Z 22001KT 11/M03 A3038 RMK A01 T01131027  RH  038%=      5-min Rain = 0
KDO1 121813Z 16001KT 11/M03 A3038 RMK A01 T01141025  RH  038%=      5-min Rain = 0
KDO1 121814Z 15001KT 12/M03 A3038 RMK A01 T01151026  RH  037%=      5-min Rain = 0
KDO1 121815Z 04001KT 12/M03 A3038 RMK A01 T01161026  RH  037%=      5-min Rain = 0
KDO1 121816Z 04001KT 12/M03 A3038 RMK A01 T01161027  RH  037%=      5-min Rain = 0
KDO1 121817Z 03001KT 11/M03 A3038 RMK A01 T01141028  RH  037%=      5-min Rain = 0
KDO1 121818Z 04000KT 11/M03 A3038 RMK A01 T01121027  RH  038%=      5-min Rain = 0
KDO1 121819Z 34001KT 11/M03 A3038 RMK A01 T01141025  RH  038%=      5-min Rain = 0
KDO1 121820Z 33002KT 11/M03 A3037 RMK A01 T01141027  RH  037%=      5-min Rain = 0
KDO1 121821Z 25001KT 11/M03 A3037 RMK A01 T01141028  RH  037%=      5-min Rain = 0
KDO1 121822Z 24001KT 11/M03 A3037 RMK A01 T01131028  RH  037%=      5-min Rain = 0
KDO1 121823Z 23000KT 11/M03 A3037 RMK A01 T01141028  RH  037%=      5-min Rain = 0
KDO1 121824Z 00000KT 12/M03 A3037 RMK A01 T01151027  RH  037%=      5-min Rain = 0
KDO1 121825Z 29001KT 12/M03 A3037 RMK A01 T01161025  RH  037%=      5-min Rain = 0
KDO1 121826Z 25003KT 12/M03 A3037 RMK A01 T01171026  RH  037%=      5-min Rain = 0
KDO1 121827Z 25001KT 12/M03 A3037 RMK A01 T01171028  RH  036%=      5-min Rain = 0
KDO1 121828Z 19001KT 12/M03 A3037 RMK A01 T01161028  RH  036%=      5-min Rain = 0
KDO1 121829Z 15001KT 12/M03 A3037 RMK A01 T01161029  RH  036%=      5-min Rain = 0
KDO1 121830Z 14001KT 12/M03 A3037 RMK A01 T01181026  RH  037%=      5-min Rain = 0
KDO1 121831Z 24002KT 12/M03 A3037 RMK A01 T01201026  RH  036%=      5-min Rain = 0
KDO1 121832Z 26002KT 12/M03 A3037 RMK A01 T01211027  RH  036%=      5-min Rain = 0
KDO1 121833Z 24002KT 12/M03 A3037 RMK A01 T01221026  RH  036%=      5-min Rain = 0
KDO1 121834Z 24001KT 12/M03 A3036 RMK A01 T01211028  RH  035%=      5-min Rain = 0
KDO1 121835Z 27002KT 12/M03 A3036 RMK A01 T01201028  RH  036%=      5-min Rain = 0
KDO1 121836Z 26002KT 12/M03 A3036 RMK A01 T01211028  RH  035%=      5-min Rain = 0
KDO1 121837Z 26001KT 12/M03 A3036 RMK A01 T01211028  RH  035%=      5-min Rain = 0
KDO1 121838Z 27002KT 12/M03 A3036 RMK A01 T01221027  RH  035%=      5-min Rain = 0
KDO1 121839Z 26003KT 12/M03 A3036 RMK A01 T01231028  RH  035%=      5-min Rain = 0
KDO1 121840Z 27003KT 12/M03 A3036 RMK A01 T01221028  RH  035%=      5-min Rain = 0
KDO1 121841Z 27002KT 12/M03 A3036 RMK A01 T01211029  RH  035%=      5-min Rain = 0
KDO1 121842Z 32001KT 12/M03 A3036 RMK A01 T01211028  RH  035%=      5-min Rain = 0
KDO1 121843Z 26003KT 12/M03 A3036 RMK A01 T01211027  RH  035%=      5-min Rain = 0
KDO1 121844Z 24002KT 12/M03 A3036 RMK A01 T01221029  RH  035%=      5-min Rain = 0
KDO1 121845Z 24002KT 13/M03 A3036 RMK A01 T01251027  RH  035%=      5-min Rain = 0
KDO1 121846Z 13001KT 13/M03 A3035 RMK A01 T01261030  RH  033%=      5-min Rain = 0
KDO1 121847Z 12002KT 13/M03 A3035 RMK A01 T01271027  RH  034%=      5-min Rain = 0
KDO1 121848Z 10001KT 13/M02 A3035 RMK A01 T01301024  RH  034%=      5-min Rain = 0
KDO1 121849Z 12002KT 13/M02 A3035 RMK A01 T01331023  RH  034%=      5-min Rain = 0
KDO1 121850Z 15002KT 13/M03 A3035 RMK A01 T01341026  RH  033%=      5-min Rain = 0
KDO1 121851Z 20004G9KT 13/M03 A3035 RMK A01 T01341026  RH  033%=      5-min Rain = 0
KDO1 121852Z 16005KT 13/M03 A3035 RMK A01 T01341027  RH  033%=      5-min Rain = 0
KDO1 121853Z 16004KT 13/M03 A3035 RMK A01 T01311030  RH  033%=      5-min Rain = 0
KDO1 121854Z 15006KT 13/M03 A3035 RMK A01 T01291028  RH  033%=      5-min Rain = 0
KDO1 121855Z 14007KT 13/M03 A3035 RMK A01 T01301028  RH  033%=      5-min Rain = 0
KDO1 121856Z 13008KT 13/M03 A3035 RMK A01 T01301029  RH  033%=      5-min Rain = 0
KDO1 121857Z 13007KT 13/M03 A3035 RMK A01 T01311030  RH  033%=      5-min Rain = 0
KDO1 121858Z 12005KT 13/M03 A3035 RMK A01 T01291032  RH  033%=      5-min Rain = 0
KDO1 121859Z 19003KT 13/M03 A3035 RMK A01 T01271031  RH  033%=      5-min Rain = 0
KDO1 121900Z 18001KT 13/M03 A3035 RMK A01 T01271032  RH  033%=      5-min Rain = 0
KDO1 121901Z 22003KT 13/M03 A3034 RMK A01 T01281032  RH  033%=      5-min Rain = 0
KDO1 121902Z 20003KT 13/M03 A3034 RMK A01 T01291032  RH  033%=      5-min Rain = 0
KDO1 121903Z 13004KT 13/M03 A3034 RMK A01 T01291030  RH  033%=      5-min Rain = 0
KDO1 121904Z 15005KT 13/M03 A3034 RMK A01 T01311031  RH  032%=      5-min Rain = 0
KDO1 121905Z 15006KT 13/M03 A3034 RMK A01 T01341032  RH  031%=      5-min Rain = 0
KDO1 121906Z 13005KT 14/M03 A3034 RMK A01 T01351033  RH  031%=      5-min Rain = 0
KDO1 121907Z 14008KT 14/M03 A3034 RMK A01 T01351032  RH  031%=      5-min Rain = 0
KDO1 121908Z 13007KT 14/M03 A3034 RMK A01 T01361034  RH  030%=      5-min Rain = 0
KDO1 121909Z 13005KT 13/M04 A3034 RMK A01 T01331035  RH  031%=      5-min Rain = 0
KDO1 121910Z 13004KT 13/M04 A3034 RMK A01 T01301036  RH  031%=      5-min Rain = 0
KDO1 121911Z 10004KT 13/M04 A3034 RMK A01 T01291036  RH  032%=      5-min Rain = 0
KDO1 121912Z 13004KT 13/M04 A3034 RMK A01 T01271037  RH  032%=      5-min Rain = 0
KDO1 121913Z 12005KT 13/M04 A3034 RMK A01 T01261035  RH  032%=      5-min Rain = 0
KDO1 121914Z 10003KT 13/M04 A3034 RMK A01 T01271035  RH  032%=      5-min Rain = 0
KDO1 121915Z 04002KT 13/M04 A3034 RMK A01 T01281036  RH  032%=      5-min Rain = 0
KDO1 121916Z 03003KT 13/M04 A3034 RMK A01 T01281035  RH  032%=      5-min Rain = 0
KDO1 121917Z 00001KT 13/M04 A3034 RMK A01 T01271036  RH  032%=      5-min Rain = 0
KDO1 121918Z 07002KT 13/M03 A3034 RMK A01 T01271034  RH  032%=      5-min Rain = 0
KDO1 121919Z 13004KT 13/M03 A3033 RMK A01 T01291034  RH  032%=      5-min Rain = 0
KDO1 121920Z 11004KT 13/M03 A3033 RMK A01 T01321033  RH  032%=      5-min Rain = 0
KDO1 121921Z 14007KT 14/M03 A3033 RMK A01 T01351032  RH  031%=      5-min Rain = 0
KDO1 121922Z 10005KT 14/M03 A3033 RMK A01 T01371033  RH  031%=      5-min Rain = 0
KDO1 121923Z 10003KT 14/M03 A3033 RMK A01 T01371034  RH  030%=      5-min Rain = 0
KDO1 121924Z 11004KT 14/M03 A3033 RMK A01 T01361034  RH  031%=      5-min Rain = 0
KDO1 121925Z 11003KT 14/M04 A3033 RMK A01 T01361036  RH  030%=      5-min Rain = 0
KDO1 121926Z 12003KT 13/M04 A3033 RMK A01 T01341038  RH  030%=      5-min Rain = 0
KDO1 121927Z 16003KT 13/M04 A3033 RMK A01 T01331037  RH  031%=      5-min Rain = 0
KDO1 121928Z 08002KT 14/M04 A3033 RMK A01 T01351035  RH  031%=      5-min Rain = 0
KDO1 121929Z 07002KT 14/M04 A3033 RMK A01 T01371036  RH  030%=      5-min Rain = 0
KDO1 121930Z 07002KT 14/M04 A3033 RMK A01 T01381036  RH  030%=      5-min Rain = 0
KDO1 121931Z 09002KT 14/M04 A3033 RMK A01 T01381036  RH  030%=      5-min Rain = 0
KDO1 121932Z 08001KT 14/M03 A3033 RMK A01 T01381033  RH  030%=      5-min Rain = 0
KDO1 121933Z 07004KT 14/M03 A3033 RMK A01 T01411033  RH  030%=      5-min Rain = 0
KDO1 121934Z 07005KT 14/M04 A3033 RMK A01 T01411035  RH  029%=      5-min Rain = 0
KDO1 121935Z 06002KT 14/M04 A3033 RMK A01 T01381042  RH  028%=      5-min Rain = 0
KDO1 121936Z 01001KT 14/M04 A3033 RMK A01 T01351042  RH  029%=      5-min Rain = 0
KDO1 121937Z 18000KT 13/M04 A3032 RMK A01 T01341040  RH  030%=      5-min Rain = 0
KDO1 121938Z 09003KT 14/M04 A3032 RMK A01 T01361037  RH  030%=      5-min Rain = 0
KDO1 121939Z 03004KT 14/M04 A3032 RMK A01 T01391038  RH  029%=      5-min Rain = 0
KDO1 121940Z 05003KT 14/M04 A3032 RMK A01 T01361041  RH  029%=      5-min Rain = 0
KDO1 121941Z 09003KT 14/M04 A3032 RMK A01 T01351038  RH  030%=      5-min Rain = 0
KDO1 121942Z 10004KT 14/M04 A3032 RMK A01 T01381036  RH  030%=      5-min Rain = 0
KDO1 121943Z 14004KT 14/M04 A3032 RMK A01 T01391039  RH  029%=      5-min Rain = 0
KDO1 121944Z 14004KT 14/M04 A3032 RMK A01 T01391038  RH  029%=      5-min Rain = 0
KDO1 121945Z 14008KT 14/M04 A3032 RMK A01 T01411037  RH  029%=      5-min Rain = 0
KDO1 121946Z 13005KT 14/M04 A3032 RMK A01 T01421040  RH  028%=      5-min Rain = 0
KDO1 121947Z 13005KT 14/M04 A3032 RMK A01 T01401042  RH  028%=      5-min Rain = 0
KDO1 121948Z 14006KT 14/M04 A3032 RMK A01 T01371042  RH  029%=      5-min Rain = 0
KDO1 121949Z 13006KT 14/M04 A3032 RMK A01 T01371041  RH  029%=      5-min Rain = 0
KDO1 121950Z 13004KT 14/M04 A3032 RMK A01 T01361043  RH  028%=      5-min Rain = 0
KDO1 121951Z 10004KT 13/M05 A3032 RMK A01 T01341045  RH  029%=      5-min Rain = 0
KDO1 121952Z 08003KT 13/M04 A3032 RMK A01 T01331043  RH  029%=      5-min Rain = 0
KDO1 121953Z 08003KT 14/M04 A3032 RMK A01 T01361042  RH  029%=      5-min Rain = 0
KDO1 121954Z 08004KT 14/M04 A3032 RMK A01 T01371044  RH  028%=      5-min Rain = 0
KDO1 121955Z 05004KT 14/M05 A3032 RMK A01 T01351045  RH  028%=      5-min Rain = 0
KDO1 121956Z 05003KT 14/M04 A3032 RMK A01 T01351044  RH  028%=      5-min Rain = 0
KDO1 121957Z 09005KT 14/M04 A3031 RMK A01 T01351044  RH  029%=      5-min Rain = 0
KDO1 121958Z 08006KT 14/M05 A3031 RMK A01 T01361046  RH  028%=      5-min Rain = 0
KDO1 121959Z 07005KT 14/M05 A3031 RMK A01 T01361047  RH  028%=      5-min Rain = 0
KDO1 122000Z 07005KT 14/M05 A3031 RMK A01 T01361047  RH  028%=      5-min Rain = 0
KDO1 122001Z 07004KT 14/M04 A3031 RMK A01 T01361044  RH  028%=      5-min Rain = 0
KDO1 122002Z 07005KT 14/M05 A3031 RMK A01 T01381045  RH  028%=      5-min Rain = 0
KDO1 122003Z 06004KT 14/M05 A3031 RMK A01 T01391046  RH  028%=      5-min Rain = 0
KDO1 122004Z 06003KT 14/M05 A3031 RMK A01 T01381046  RH  028%=      5-min Rain = 0
KDO1 122005Z 09002KT 14/M05 A3031 RMK A01 T01361047  RH  028%=      5-min Rain = 0
KDO1 122006Z 07003KT 14/M05 A3031 RMK A01 T01361046  RH  028%=      5-min Rain = 0
KDO1 122007Z 07003KT 14/M05 A3031 RMK A01 T01351047  RH  028%=      5-min Rain = 0
KDO1 122008Z 07001KT 14/M04 A3031 RMK A01 T01361044  RH  028%=      5-min Rain = 0
KDO1 122009Z 12003KT 14/M04 A3031 RMK A01 T01391043  RH  028%=      5-min Rain = 0
KDO1 122010Z 14004KT 14/M04 A3031 RMK A01 T01411043  RH  028%=      5-min Rain = 0
KDO1 122011Z 14004KT 14/M05 A3031 RMK A01 T01421045  RH  027%=      5-min Rain = 0
KDO1 122012Z 15005KT 14/M05 A3031 RMK A01 T01411046  RH  027%=      5-min Rain = 0
KDO1 122013Z 15003KT 14/M05 A3031 RMK A01 T01391046  RH  027%=      5-min Rain = 0
KDO1 122014Z 11001KT 14/M05 A3031 RMK A01 T01381048  RH  027%=      5-min Rain = 0
KDO1 122015Z 06001KT 14/M05 A3031 RMK A01 T01381049  RH  027%=      5-min Rain = 0
KDO1 122016Z 06001KT 14/M05 A3031 RMK A01 T01371048  RH  027%=      5-min Rain = 0
KDO1 122017Z 10000KT 14/M05 A3031 RMK A01 T01371047  RH  028%=      5-min Rain = 0
KDO1 122018Z 08002KT 14/M05 A3031 RMK A01 T01381045  RH  028%=      5-min Rain = 0
KDO1 122019Z 09002KT 14/M05 A303 RMK A01 T01391047  RH  027%=      5-min Rain = 0
KDO1 122020Z 10003KT 14/M05 A303 RMK A01 T01401045  RH  027%=      5-min Rain = 0
KDO1 122021Z 13001KT 14/M04 A303 RMK A01 T01401043  RH  028%=      5-min Rain = 0
KDO1 122022Z 18002KT 14/M04 A303 RMK A01 T01411043  RH  028%=      5-min Rain = 0
KDO1 122023Z 18003KT 14/M04 A303 RMK A01 T01421041  RH  028%=      5-min Rain = 0
KDO1 122024Z 19007KT 15/M04 A303 RMK A01 T01451038  RH  028%=      5-min Rain = 0
KDO1 122025Z 19005KT 14/M04 A303 RMK A01 T01441042  RH  027%=      5-min Rain = 0
KDO1 122026Z 17005KT 14/M04 A303 RMK A01 T01421042  RH  028%=      5-min Rain = 0
KDO1 122027Z 19004KT 14/M04 A303 RMK A01 T01421043  RH  027%=      5-min Rain = 0
KDO1 122028Z 16005KT 14/M04 A303 RMK A01 T01411042  RH  028%=      5-min Rain = 0
KDO1 122029Z 15003KT 14/M04 A303 RMK A01 T01411043  RH  028%=      5-min Rain = 0
KDO1 122030Z 09002KT 14/M05 A303 RMK A01 T01411046  RH  027%=      5-min Rain = 0
KDO1 122031Z 08001KT 14/M05 A303 RMK A01 T01391046  RH  027%=      5-min Rain = 0
KDO1 122032Z 05001KT 14/M04 A303 RMK A01 T01381043  RH  028%=      5-min Rain = 0
KDO1 122033Z 02000KT 14/M04 A303 RMK A01 T01381041  RH  029%=      5-min Rain = 0
KDO1 122034Z 00000KT 14/M04 A303 RMK A01 T01401040  RH  028%=      5-min Rain = 0
KDO1 122035Z 35000KT 14/M04 A3029 RMK A01 T01421040  RH  028%=      5-min Rain = 0
KDO1 122036Z 01000KT 15/M04 A3029 RMK A01 T01451035  RH  029%=      5-min Rain = 0
KDO1 122037Z 13004KT 15/M04 A3029 RMK A01 T01481036  RH  028%=      5-min Rain = 0
KDO1 122038Z 14002KT 15/M04 A3029 RMK A01 T01491039  RH  027%=      5-min Rain = 0
KDO1 122039Z 16005KT 15/M04 A3029 RMK A01 T01481038  RH  027%=      5-min Rain = 0
KDO1 122040Z 19008KT 15/M04 A3029 RMK A01 T01511035  RH  028%=      5-min Rain = 0
KDO1 122041Z 18008KT 15/M04 A3029 RMK A01 T01501038  RH  027%=      5-min Rain = 0
KDO1 122042Z 18006G11KT 15/M04 A3029 RMK A01 T01451039  RH  028%=      5-min Rain = 0
KDO1 122043Z 18007KT 15/M04 A3029 RMK A01 T01451038  RH  028%=      5-min Rain = 0
KDO1 122044Z 19004KT 15/M04 A3029 RMK A01 T01461038  RH  028%=      5-min Rain = 0
KDO1 122045Z 14007KT 15/M04 A3029 RMK A01 T01471038  RH  028%=      5-min Rain = 0
KDO1 122046Z 14005KT 15/M04 A3029 RMK A01 T01471038  RH  028%=      5-min Rain = 0
KDO1 122047Z 13008KT 15/M04 A3029 RMK A01 T01471037  RH  028%=      5-min Rain = 0
KDO1 122048Z 12004KT 15/M04 A3029 RMK A01 T01481039  RH  027%=      5-min Rain = 0
KDO1 122049Z 10004KT 15/M04 A3029 RMK A01 T01471040  RH  027%=      5-min Rain = 0
KDO1 122050Z 10003KT 15/M04 A3029 RMK A01 T01471040  RH  027%=      5-min Rain = 0
KDO1 122051Z 13006KT 15/M04 A3029 RMK A01 T01471038  RH  028%=      5-min Rain = 0
KDO1 122052Z 12006KT 15/M04 A3028 RMK A01 T01471038  RH  027%=      5-min Rain = 0
KDO1 122053Z 15006KT 15/M04 A3028 RMK A01 T01471039  RH  028%=      5-min Rain = 0
KDO1 122054Z 14005KT 15/M04 A3028 RMK A01 T01471037  RH  028%=      5-min Rain = 0
KDO1 122055Z 16007KT 15/M04 A3028 RMK A01 T01481038  RH  027%=      5-min Rain = 0
KDO1 122056Z 15006KT 15/M04 A3028 RMK A01 T01481039  RH  027%=      5-min Rain = 0
KDO1 122057Z 16005KT 15/M04 A3028 RMK A01 T01461041  RH  027%=      5-min Rain = 0
KDO1 122058Z 19005KT 14/M04 A3028 RMK A01 T01441042  RH  027%=      5-min Rain = 0
KDO1 122059Z 22005KT 15/M04 A3028 RMK A01 T01451042  RH  027%=      5-min Rain = 0
KDO1 122100Z 22006KT 15/M04 A3028 RMK A01 T01471041  RH  027%=      5-min Rain = 0
KDO1 122101Z 21006KT 15/M04 A3028 RMK A01 T01471043  RH  027%=      5-min Rain = 0
KDO1 122102Z 21003KT 15/M04 A3028 RMK A01 T01461043  RH  027%=      5-min Rain = 0
KDO1 122103Z 25003KT 15/M04 A3028 RMK A01 T01471042  RH  027%=      5-min Rain = 0
KDO1 122104Z 25003KT 15/M04 A3028 RMK A01 T01471043  RH  027%=      5-min Rain = 0
KDO1 122105Z 31002KT 15/M04 A3028 RMK A01 T01461042  RH  027%=      5-min Rain = 0
KDO1 122106Z 30003KT 15/M04 A3028 RMK A01 T01451044  RH  027%=      5-min Rain = 0
KDO1 122107Z 23001KT 14/M04 A3028 RMK A01 T01431043  RH  027%=      5-min Rain = 0
KDO1 122108Z 13005KT 14/M04 A3028 RMK A01 T01431041  RH  028%=      5-min Rain = 0
KDO1 122109Z 13003KT 15/M04 A3028 RMK A01 T01461040  RH  027%=      5-min Rain = 0
KDO1 122110Z 13004KT 15/M04 A3027 RMK A01 T01471041  RH  027%=      5-min Rain = 0
KDO1 122111Z 13005KT 15/M04 A3027 RMK A01 T01481041  RH  027%=      5-min Rain = 0
KDO1 122112Z 15007KT 15/M04 A3027 RMK A01 T01471042  RH  027%=      5-min Rain = 0
KDO1 122113Z 14008KT 15/M04 A3027 RMK A01 T01471043  RH  027%=      5-min Rain = 0
KDO1 122114Z 13007KT 15/M04 A3027 RMK A01 T01461043  RH  027%=      5-min Rain = 0
KDO1 122115Z 10006KT 15/M04 A3027 RMK A01 T01471042  RH  027%=      5-min Rain = 0
KDO1 122116Z 11006KT 15/M04 A3027 RMK A01 T01461043  RH  027%=      5-min Rain = 0
KDO1 122117Z 15006KT 15/M04 A3027 RMK A01 T01471040  RH  027%=      5-min Rain = 0
KDO1 122118Z 14005KT 15/M04 A3027 RMK A01 T01481042  RH  027%=      5-min Rain = 0
KDO1 122119Z 14005KT 15/M04 A3027 RMK A01 T01481041  RH  027%=      5-min Rain = 0
KDO1 122120Z 13007KT 15/M04 A3027 RMK A01 T01491042  RH  027%=      5-min Rain = 0
KDO1 122121Z 12005KT 15/M04 A3027 RMK A01 T01471043  RH  027%=      5-min Rain = 0
KDO1 122122Z 13003KT 15/M04 A3027 RMK A01 T01471042  RH  027%=      5-min Rain = 0
KDO1 122123Z 15002KT 15/M04 A3027 RMK A01 T01471042  RH  027%=      5-min Rain = 0
KDO1 122124Z 12005G11KT 15/M04 A3027 RMK A01 T01471043  RH  027%=      5-min Rain = 0
KDO1 122125Z 13005KT 15/M04 A3027 RMK A01 T01461044  RH  026%=      5-min Rain = 0
KDO1 122126Z 16002KT 14/M04 A3027 RMK A01 T01441044  RH  027%=      5-min Rain = 0
KDO1 122127Z 15002KT 14/M04 A3027 RMK A01 T01441043  RH  027%=      5-min Rain = 0
KDO1 122128Z 12003KT 15/M04 A3027 RMK A01 T01461042  RH  027%=      5-min Rain = 0
KDO1 122129Z 13004KT 15/M04 A3027 RMK A01 T01481043  RH  027%=      5-min Rain = 0
KDO1 122130Z 13004KT 15/M05 A3027 RMK A01 T01471045  RH  026%=      5-min Rain = 0
KDO1 122131Z 13004KT 15/M05 A3027 RMK A01 T01451045  RH  027%=      5-min Rain = 0
KDO1 122132Z 13005KT 15/M04 A3027 RMK A01 T01451044  RH  027%=      5-min Rain = 0
KDO1 122133Z 18004KT 15/M04 A3027 RMK A01 T01471040  RH  027%=      5-min Rain = 0
KDO1 122134Z 17005KT 15/M04 A3027 RMK A01 T01491040  RH  027%=      5-min Rain = 0
KDO1 122135Z 17007KT 15/M04 A3027 RMK A01 T01501041  RH  027%=      5-min Rain = 0
KDO1 122136Z 17007KT 15/M04 A3027 RMK A01 T01511040  RH  027%=      5-min Rain = 0
KDO1 122137Z 16002KT 15/M04 A3027 RMK A01 T01501041  RH  026%=      5-min Rain = 0
KDO1 122138Z 20005KT 15/M04 A3026 RMK A01 T01491039  RH  027%=      5-min Rain = 0
KDO1 122139Z 19001KT 15/M04 A3026 RMK A01 T01501040  RH  027%=      5-min Rain = 0
KDO1 122140Z 28001KT 15/M04 A3026 RMK A01 T01491040  RH  027%=      5-min Rain = 0
KDO1 122141Z 29001KT 15/M04 A3026 RMK A01 T01481040  RH  027%=      5-min Rain = 0
KDO1 122142Z 33001KT 15/M04 A3026 RMK A01 T01471041  RH  027%=      5-min Rain = 0
KDO1 122143Z 34001KT 15/M04 A3026 RMK A01 T01471040  RH  027%=      5-min Rain = 0
KDO1 122144Z 35001KT 15/M04 A3026 RMK A01 T01471040  RH  027%=      5-min Rain = 0
KDO1 122145Z 11003KT 15/M04 A3026 RMK A01 T01471040  RH  027%=      5-min Rain = 0
KDO1 122146Z 12003KT 15/M04 A3026 RMK A01 T01481040  RH  027%=      5-min Rain = 0
KDO1 122147Z 16005KT 15/M04 A3026 RMK A01 T01491040  RH  027%=      5-min Rain = 0
KDO1 122148Z 17007KT 15/M04 A3026 RMK A01 T01521037  RH  027%=      5-min Rain = 0
KDO1 122149Z 17007KT 15/M04 A3026 RMK A01 T01531039  RH  026%=      5-min Rain = 0
KDO1 122150Z 18004KT 15/M04 A3026 RMK A01 T01521040  RH  026%=      5-min Rain = 0
KDO1 122151Z 17006KT 15/M04 A3026 RMK A01 T01521038  RH  027%=      5-min Rain = 0
KDO1 122152Z 17006KT 16/M04 A3026 RMK A01 T01551040  RH  026%=      5-min Rain = 0
KDO1 122153Z 17006KT 16/M04 A3026 RMK A01 T01551042  RH  025%=      5-min Rain = 0
KDO1 122154Z 17005KT 15/M04 A3026 RMK A01 T01541042  RH  026%=      5-min Rain = 0
KDO1 122155Z 15006KT 15/M04 A3026 RMK A01 T01531042  RH  026%=      5-min Rain = 0
KDO1 122156Z 14006KT 15/M04 A3026 RMK A01 T01531042  RH  026%=      5-min Rain = 0
KDO1 122157Z 10001KT 15/M04 A3026 RMK A01 T01531043  RH  026%=      5-min Rain = 0
KDO1 122158Z 07002KT 15/M04 A3026 RMK A01 T01511044  RH  026%=      5-min Rain = 0
KDO1 122159Z 07003KT 15/M04 A3026 RMK A01 T01491044  RH  026%=      5-min Rain = 0
KDO1 122200Z 07001KT 15/M04 A3026 RMK A01 T01481044  RH  026%=      5-min Rain = 0
KDO1 122201Z 17002G7KT 15/M04 A3025 RMK A01 T01481042  RH  027%=      5-min Rain = 0
KDO1 122202Z 16004KT 15/M04 A3025 RMK A01 T01501041  RH  027%=      5-min Rain = 0
KDO1 122203Z 17003KT 15/M04 A3025 RMK A01 T01521040  RH  026%=      5-min Rain = 0
KDO1 122204Z 20004KT 15/M04 A3025 RMK A01 T01531040  RH  026%=      5-min Rain = 0
KDO1 122205Z 19001KT 15/M04 A3025 RMK A01 T01531042  RH  026%=      5-min Rain = 0
KDO1 122206Z 18005KT 15/M04 A3025 RMK A01 T01531041  RH  026%=      5-min Rain = 0
KDO1 122207Z 18009KT 16/M04 A3025 RMK A01 T01551039  RH  026%=      5-min Rain = 0
KDO1 122208Z 19009KT 16/M04 A3025 RMK A01 T01551040  RH  026%=      5-min Rain = 0
KDO1 122209Z 18008KT 15/M04 A3025 RMK A01 T01541040  RH  026%=      5-min Rain = 0
KDO1 122210Z 18008KT 15/M04 A3025 RMK A01 T01541041  RH  026%=      5-min Rain = 0
KDO1 122211Z 17007KT 15/M04 A3025 RMK A01 T01531042  RH  026%=      5-min Rain = 0
KDO1 122212Z 17007KT 15/M04 A3025 RMK A01 T01521042  RH  026%=      5-min Rain = 0
KDO1 122213Z 18006KT 15/M04 A3025 RMK A01 T01511044  RH  026%=      5-min Rain = 0
KDO1 122214Z 16008KT 15/M04 A3025 RMK A01 T01501041  RH  026%=      5-min Rain = 0
KDO1 122215Z 14005KT 15/M04 A3025 RMK A01 T01511041  RH  026%=      5-min Rain = 0
KDO1 122216Z 14003KT 15/M04 A3025 RMK A01 T01511043  RH  026%=      5-min Rain = 0
KDO1 122217Z 17005KT 15/M04 A3025 RMK A01 T01511042  RH  026%=      5-min Rain = 0
KDO1 122218Z 19007KT 15/M04 A3025 RMK A01 T01501042  RH  026%=      5-min Rain = 0
KDO1 122219Z 19007KT 15/M04 A3025 RMK A01 T01511041  RH  026%=      5-min Rain = 0
KDO1 122220Z 19006KT 15/M04 A3025 RMK A01 T01511043  RH  026%=      5-min Rain = 0
KDO1 122221Z 20007KT 15/M04 A3025 RMK A01 T01511043  RH  026%=      5-min Rain = 0
KDO1 122222Z 19005KT 15/M04 A3025 RMK A01 T01501042  RH  026%=      5-min Rain = 0
KDO1 122223Z 17004KT 15/M04 A3025 RMK A01 T01511042  RH  026%=      5-min Rain = 0
KDO1 122224Z 16003KT 15/M04 A3025 RMK A01 T01511042  RH  026%=      5-min Rain = 0
KDO1 122225Z 18005KT 15/M04 A3024 RMK A01 T01511042  RH  026%=      5-min Rain = 0
KDO1 122226Z 18003KT 15/M04 A3024 RMK A01 T01521042  RH  026%=      5-min Rain = 0
KDO1 122227Z 21003KT 15/M04 A3024 RMK A01 T01521043  RH  026%=      5-min Rain = 0
KDO1 122228Z 24002KT 15/M04 A3024 RMK A01 T01511042  RH  026%=      5-min Rain = 0
KDO1 122229Z 20002KT 15/M04 A3024 RMK A01 T01511041  RH  026%=      5-min Rain = 0
KDO1 122230Z 19006KT 15/M04 A3024 RMK A01 T01521040  RH  026%=      5-min Rain = 0
KDO1 122231Z 18007KT 15/M04 A3024 RMK A01 T01541041  RH  026%=      5-min Rain = 0
KDO1 122232Z 19001KT 15/M04 A3024 RMK A01 T01521044  RH  026%=      5-min Rain = 0
KDO1 122233Z 19000KT 15/M04 A3024 RMK A01 T01501042  RH  026%=      5-min Rain = 0
KDO1 122234Z 20003KT 15/M04 A3024 RMK A01 T01511041  RH  026%=      5-min Rain = 0
KDO1 122235Z 21001KT 15/M04 A3024 RMK A01 T01531041  RH  026%=      5-min Rain = 0
KDO1 122236Z 32001KT 15/M04 A3024 RMK A01 T01531042  RH  026%=      5-min Rain = 0
KDO1 122237Z 34002KT 15/M04 A3024 RMK A01 T01531041  RH  026%=      5-min Rain = 0
KDO1 122238Z 34002KT 15/M04 A3024 RMK A01 T01511042  RH  026%=      5-min Rain = 0
KDO1 122239Z 34001KT 15/M04 A3024 RMK A01 T01491041  RH  027%=      5-min Rain = 0
KDO1 122240Z 05001KT 15/M04 A3024 RMK A01 T01491041  RH  027%=      5-min Rain = 0
KDO1 122241Z 14004KT 15/M04 A3024 RMK A01 T01491042  RH  026%=      5-min Rain = 0
KDO1 122242Z 14005KT 15/M04 A3024 RMK A01 T01501040  RH  027%=      5-min Rain = 0
KDO1 122243Z 14006KT 15/M04 A3024 RMK A01 T01511041  RH  026%=      5-min Rain = 0
KDO1 122244Z 13005KT 15/M04 A3024 RMK A01 T01511041  RH  026%=      5-min Rain = 0
KDO1 122245Z 14005KT 15/M04 A3023 RMK A01 T01511040  RH  027%=      5-min Rain = 0
KDO1 122246Z 16007KT 15/M04 A3023 RMK A01 T01521040  RH  026%=      5-min Rain = 0
KDO1 122247Z 14005KT 15/M04 A3023 RMK A01 T01521041  RH  026%=      5-min Rain = 0
KDO1 122248Z 15002KT 15/M04 A3023 RMK A01 T01511042  RH  026%=      5-min Rain = 0
KDO1 122249Z 17003KT 15/M04 A3023 RMK A01 T01511041  RH  026%=      5-min Rain = 0
KDO1 122250Z 15004KT 15/M04 A3023 RMK A01 T01511042  RH  026%=      5-min Rain = 0
KDO1 122251Z 13004KT 15/M04 A3023 RMK A01 T01511042  RH  026%=      5-min Rain = 0
KDO1 122252Z 14004KT 15/M04 A3023 RMK A01 T01501043  RH  026%=      5-min Rain = 0
KDO1 122253Z 18006KT 15/M04 A3023 RMK A01 T01501040  RH  027%=      5-min Rain = 0
KDO1 122254Z 18006KT 15/M04 A3023 RMK A01 T01521040  RH  026%=      5-min Rain = 0
KDO1 122255Z 17005KT 15/M04 A3023 RMK A01 T01531041  RH  026%=      5-min Rain = 0
KDO1 122256Z 18005KT 15/M04 A3023 RMK A01 T01531042  RH  026%=      5-min Rain = 0
KDO1 122257Z 17006KT 15/M04 A3023 RMK A01 T01521042  RH  026%=      5-min Rain = 0
KDO1 122258Z 17003KT 15/M04 A3023 RMK A01 T01511041  RH  026%=      5-min Rain = 0
KDO1 122259Z 17004KT 15/M04 A3023 RMK A01 T01511040  RH  027%=      5-min Rain = 0
KDO1 122300Z 16004KT 15/M04 A3023 RMK A01 T01521041  RH  026%=      5-min Rain = 0
KDO1 122301Z 15003KT 15/M04 A3023 RMK A01 T01521042  RH  026%=      5-min Rain = 0
KDO1 122302Z 21004KT 15/M04 A3023 RMK A01 T01521040  RH  026%=      5-min Rain = 0
KDO1 122303Z 21003KT 15/M04 A3023 RMK A01 T01521041  RH  026%=      5-min Rain = 0
KDO1 122304Z 22003KT 15/M04 A3023 RMK A01 T01511041  RH  026%=      5-min Rain = 0
KDO1 122305Z 20000KT 15/M04 A3023 RMK A01 T01521041  RH  026%=      5-min Rain = 0
KDO1 122306Z 23002KT 15/M04 A3022 RMK A01 T01511042  RH  026%=      5-min Rain = 0
KDO1 122307Z 17002KT 15/M04 A3022 RMK A01 T01511043  RH  026%=      5-min Rain = 0
KDO1 122308Z 14003KT 15/M04 A3022 RMK A01 T01511042  RH  026%=      5-min Rain = 0
KDO1 122309Z 15005KT 15/M04 A3022 RMK A01 T01521041  RH  026%=      5-min Rain = 0
KDO1 122310Z 12005KT 15/M04 A3022 RMK A01 T01521042  RH  026%=      5-min Rain = 0
KDO1 122311Z 13004KT 15/M04 A3022 RMK A01 T01511044  RH  026%=      5-min Rain = 0
KDO1 122312Z 16005KT 15/M04 A3022 RMK A01 T01491043  RH  026%=      5-min Rain = 0
KDO1 122313Z 17007KT 15/M04 A3022 RMK A01 T01491043  RH  026%=      5-min Rain = 0
KDO1 122314Z 17005KT 15/M04 A3022 RMK A01 T01491043  RH  026%=      5-min Rain = 0
KDO1 122315Z 16004KT 15/M04 A3022 RMK A01 T01491043  RH  026%=      5-min Rain = 0
KDO1 122316Z 15005KT 15/M04 A3022 RMK A01 T01481043  RH  026%=      5-min Rain = 0
KDO1 122317Z 14005KT 15/M04 A3022 RMK A01 T01491042  RH  027%=      5-min Rain = 0
KDO1 122318Z 15006KT 15/M04 A3022 RMK A01 T01501042  RH  026%=      5-min Rain = 0
KDO1 122319Z 17006KT 15/M04 A3022 RMK A01 T01501042  RH  026%=      5-min Rain = 0
KDO1 122320Z 17005KT 15/M04 A3022 RMK A01 T01501043  RH  026%=      5-min Rain = 0
KDO1 122321Z 16006KT 15/M04 A3022 RMK A01 T01501043  RH  026%=      5-min Rain = 0
KDO1 122322Z 17006KT 15/M04 A3022 RMK A01 T01481044  RH  026%=      5-min Rain = 0
KDO1 122323Z 18005KT 15/M04 A3022 RMK A01 T01471044  RH  026%=      5-min Rain = 0
KDO1 122324Z 21003KT 15/M04 A3022 RMK A01 T01471044  RH  026%=      5-min Rain = 0
KDO1 122325Z 17002KT 15/M05 A3022 RMK A01 T01461045  RH  026%=      5-min Rain = 0
KDO1 122326Z 16004KT 15/M04 A3022 RMK A01 T01461044  RH  027%=      5-min Rain = 0
KDO1 122327Z 15004KT 15/M04 A3022 RMK A01 T01461044  RH  027%=      5-min Rain = 0
KDO1 122328Z 15004KT 15/M04 A3022 RMK A01 T01461044  RH  027%=      5-min Rain = 0
KDO1 122329Z 13004KT 15/M04 A3022 RMK A01 T01461044  RH  027%=      5-min Rain = 0
KDO1 122330Z 13003KT 15/M04 A3022 RMK A01 T01461044  RH  027%=      5-min Rain = 0
KDO1 122331Z 13005KT 15/M04 A3022 RMK A01 T01461044  RH  027%=      5-min Rain = 0
KDO1 122332Z 13004KT 15/M04 A3022 RMK A01 T01461043  RH  027%=      5-min Rain = 0
KDO1 122333Z 13004KT 15/M04 A3022 RMK A01 T01461044  RH  027%=      5-min Rain = 0
KDO1 122334Z 14003KT 15/M04 A3022 RMK A01 T01461043  RH  027%=      5-min Rain = 0
KDO1 122335Z 15004KT 15/M04 A3022 RMK A01 T01461043  RH  027%=      5-min Rain = 0
KDO1 122336Z 15005KT 15/M04 A3022 RMK A01 T01461044  RH  026%=      5-min Rain = 0
KDO1 122337Z 16008KT 15/M05 A3022 RMK A01 T01461045  RH  026%=      5-min Rain = 0
KDO1 122338Z 17006KT 15/M05 A3022 RMK A01 T01461046  RH  026%=      5-min Rain = 0
KDO1 122339Z 17005KT 15/M05 A3022 RMK A01 T01451045  RH  026%=      5-min Rain = 0
KDO1 122340Z 16006KT 15/M05 A3022 RMK A01 T01461045  RH  026%=      5-min Rain = 0
KDO1 122341Z 17007KT 15/M05 A3022 RMK A01 T01461045  RH  026%=      5-min Rain = 0
KDO1 122342Z 17005KT 15/M05 A3022 RMK A01 T01451046  RH  026%=      5-min Rain = 0
KDO1 122343Z 20005KT 15/M04 A3022 RMK A01 T01461044  RH  027%=      5-min Rain = 0
KDO1 122344Z 20007KT 15/M04 A3022 RMK A01 T01471044  RH  026%=      5-min Rain = 0
KDO1 122345Z 19007KT 15/M04 A3022 RMK A01 T01471044  RH  026%=      5-min Rain = 0
KDO1 122346Z 19005KT 15/M05 A3022 RMK A01 T01471045  RH  026%=      5-min Rain = 0
KDO1 122347Z 17006KT 15/M05 A3022 RMK A01 T01461045  RH  026%=      5-min Rain = 0
KDO1 122348Z 18005KT 15/M05 A3022 RMK A01 T01461045  RH  026%=      5-min Rain = 0
KDO1 122349Z 19005KT 14/M05 A3022 RMK A01 T01441046  RH  026%=      5-min Rain = 0
KDO1 122350Z 18006KT 14/M05 A3022 RMK A01 T01441046  RH  027%=      5-min Rain = 0
KDO1 122351Z 18006KT 14/M05 A3022 RMK A01 T01431046  RH  027%=      5-min Rain = 0
KDO1 122352Z 17005KT 14/M05 A3022 RMK A01 T01431046  RH  027%=      5-min Rain = 0
KDO1 122353Z 15006KT 14/M05 A3022 RMK A01 T01431046  RH  027%=      5-min Rain = 0
KDO1 122354Z 16004KT 14/M05 A3022 RMK A01 T01431046  RH  027%=      5-min Rain = 0
KDO1 122355Z 16004KT 14/M05 A3022 RMK A01 T01431046  RH  027%=      5-min Rain = 0
KDO1 122356Z 16003KT 14/M05 A3022 RMK A01 T01431046  RH  027%=      5-min Rain = 0
KDO1 122357Z 17004KT 14/M05 A3022 RMK A01 T01421046  RH  027%=      5-min Rain = 0
KDO1 122358Z 15005KT 14/M05 A3022 RMK A01 T01431046  RH  027%=      5-min Rain = 0
KDO1 122359Z 15007KT 14/M05 A3022 RMK A01 T01431046  RH  027%=      5-min Rain = 0
KDO1 130000Z 15007KT 14/M05 A3022 RMK A01 T01421047  RH  027%=      5-min Rain = 0
KDO1 130001Z 14006KT 14/M05 A3022 RMK A01 T01411047  RH  027%=      5-min Rain = 0
KDO1 130002Z 14007KT 14/M05 A3022 RMK A01 T01401048  RH  027%=      5-min Rain = 0
KDO1 130003Z 15007KT 14/M05 A3022 RMK A01 T01391047  RH  027%=      5-min Rain = 0
KDO1 130004Z 15007KT 14/M05 A3022 RMK A01 T01391047  RH  027%=      5-min Rain = 0
KDO1 130005Z 15006KT 14/M05 A3022 RMK A01 T01381047  RH  027%=      5-min Rain = 0
KDO1 130006Z 16007KT 14/M05 A3022 RMK A01 T01381048  RH  027%=      5-min Rain = 0
KDO1 130007Z 15008KT 14/M05 A3022 RMK A01 T01381048  RH  027%=      5-min Rain = 0
KDO1 130008Z 15007KT 14/M05 A3022 RMK A01 T01371048  RH  027%=      5-min Rain = 0
KDO1 130009Z 15005KT 14/M05 A3022 RMK A01 T01371048  RH  027%=      5-min Rain = 0
KDO1 130010Z 15006KT 14/M05 A3022 RMK A01 T01371048  RH  027%=      5-min Rain = 0
KDO1 130011Z 15006KT 14/M05 A3022 RMK A01 T01371048  RH  027%=      5-min Rain = 0
KDO1 130012Z 15006KT 14/M05 A3022 RMK A01 T01371048  RH  027%=      5-min Rain = 0
KDO1 130013Z 15005KT 14/M05 A3022 RMK A01 T01371047  RH  028%=      5-min Rain = 0
KDO1 130014Z 16006KT 14/M05 A3022 RMK A01 T01361047  RH  028%=      5-min Rain = 0
KDO1 130015Z 16006KT 14/M05 A3022 RMK A01 T01361048  RH  028%=      5-min Rain = 0
KDO1 130016Z 16005KT 14/M05 A3022 RMK A01 T01351048  RH  028%=      5-min Rain = 0
KDO1 130017Z 17007KT 14/M05 A3022 RMK A01 T01351048  RH  028%=      5-min Rain = 0
KDO1 130018Z 16006KT 13/M05 A3022 RMK A01 T01341048  RH  028%=      5-min Rain = 0
KDO1 130019Z 16005KT 13/M05 A3022 RMK A01 T01341048  RH  028%=      5-min Rain = 0
KDO1 130020Z 16006KT 13/M05 A3022 RMK A01 T01331048  RH  028%=      5-min Rain = 0
KDO1 130021Z 16007KT 13/M05 A3022 RMK A01 T01311049  RH  028%=      5-min Rain = 0
KDO1 130022Z 17008KT 13/M05 A3022 RMK A01 T01311049  RH  028%=      5-min Rain = 0
KDO1 130023Z 17007KT 13/M05 A3022 RMK A01 T01301049  RH  028%=      5-min Rain = 0
KDO1 130024Z 16006KT 13/M05 A3022 RMK A01 T01291049  RH  028%=      5-min Rain = 0
KDO1 130025Z 16005KT 13/M05 A3022 RMK A01 T01291049  RH  029%=      5-min Rain = 0
KDO1 130026Z 16006KT 13/M05 A3022 RMK A01 T01281049  RH  029%=      5-min Rain = 0
KDO1 130027Z 16006KT 13/M05 A3022 RMK A01 T01271049  RH  029%=      5-min Rain = 0
KDO1 130028Z 16006KT 13/M05 A3022 RMK A01 T01261049  RH  029%=      5-min Rain = 0
KDO1 130029Z 16006KT 13/M05 A3023 RMK A01 T01261049  RH  029%=      5-min Rain = 0
KDO1 130030Z 16006KT 13/M05 A3023 RMK A01 T01261049  RH  029%=      5-min Rain = 0
KDO1 130031Z 15006KT 13/M05 A3023 RMK A01 T01251050  RH  029%=      5-min Rain = 0
KDO1 130032Z 16006KT 12/M05 A3023 RMK A01 T01241049  RH  029%=      5-min Rain = 0
KDO1 130033Z 16006KT 12/M05 A3023 RMK A01 T01241050  RH  029%=      5-min Rain = 0
KDO1 130034Z 16006KT 12/M05 A3023 RMK A01 T01231050  RH  030%=      5-min Rain = 0
KDO1 130035Z 16006KT 12/M05 A3023 RMK A01 T01221050  RH  030%=      5-min Rain = 0
KDO1 130036Z 16007KT 12/M05 A3023 RMK A01 T01211050  RH  030%=      5-min Rain = 0
KDO1 130037Z 16006KT 12/M05 A3023 RMK A01 T01211050  RH  030%=      5-min Rain = 0
KDO1 130038Z 16007KT 12/M05 A3023 RMK A01 T01201050  RH  030%=      5-min Rain = 0
KDO1 130039Z 16007KT 12/M05 A3023 RMK A01 T01201051  RH  030%=      5-min Rain = 0
KDO1 130040Z 16007KT 12/M05 A3023 RMK A01 T01191051  RH  030%=      5-min Rain = 0
KDO1 130041Z 16007KT 12/M05 A3023 RMK A01 T01181051  RH  030%=      5-min Rain = 0
KDO1 130042Z 16007KT 12/M05 A3023 RMK A01 T01171051  RH  030%=      5-min Rain = 0
KDO1 130043Z 16007KT 12/M05 A3023 RMK A01 T01171052  RH  030%=      5-min Rain = 0
KDO1 130044Z 15007KT 12/M05 A3023 RMK A01 T01161052  RH  030%=      5-min Rain = 0
KDO1 130045Z 16007KT 12/M05 A3023 RMK A01 T01161052  RH  031%=      5-min Rain = 0
KDO1 130046Z 16007KT 12/M05 A3023 RMK A01 T01151052  RH  031%=      5-min Rain = 0
KDO1 130047Z 15007KT 11/M05 A3023 RMK A01 T01141053  RH  031%=      5-min Rain = 0
KDO1 130048Z 15007KT 11/M05 A3023 RMK A01 T01131053  RH  031%=      5-min Rain = 0
KDO1 130049Z 16007KT 11/M05 A3023 RMK A01 T01131053  RH  031%=      5-min Rain = 0
KDO1 130050Z 16007KT 11/M05 A3023 RMK A01 T01121053  RH  031%=      5-min Rain = 0
KDO1 130051Z 16007KT 11/M05 A3023 RMK A01 T01121053  RH  031%=      5-min Rain = 0
KDO1 130052Z 15007KT 11/M05 A3023 RMK A01 T01121054  RH  031%=      5-min Rain = 0
KDO1 130053Z 16007KT 11/M05 A3023 RMK A01 T01111054  RH  031%=      5-min Rain = 0
KDO1 130054Z 16007KT 11/M05 A3023 RMK A01 T01111053  RH  031%=      5-min Rain = 0
KDO1 130055Z 16007KT 11/M05 A3023 RMK A01 T01101054  RH  031%=      5-min Rain = 0
KDO1 130056Z 16007KT 11/M05 A3023 RMK A01 T01101054  RH  031%=      5-min Rain = 0
KDO1 130057Z 16007KT 11/M05 A3023 RMK A01 T01091054  RH  031%=      5-min Rain = 0
KDO1 130058Z 16007KT 11/M06 A3023 RMK A01 T01091055  RH  031%=      5-min Rain = 0
KDO1 130059Z 16008KT 11/M06 A3023 RMK A01 T01091055  RH  031%=      5-min Rain = 0
KDO1 130100Z 16008KT 11/M06 A3023 RMK A01 T01081055  RH  031%=      5-min Rain = 0
KDO1 130101Z 16008KT 11/M06 A3023 RMK A01 T01081055  RH  031%=      5-min Rain = 0
KDO1 130102Z 16008KT 11/M06 A3023 RMK A01 T01081055  RH  031%=      5-min Rain = 0
KDO1 130103Z 16007KT 11/M06 A3023 RMK A01 T01081056  RH  031%=      5-min Rain = 0
KDO1 130104Z 16007KT 11/M06 A3023 RMK A01 T01081055  RH  031%=      5-min Rain = 0
KDO1 130105Z 16007KT 11/M06 A3023 RMK A01 T01071056  RH  031%=      5-min Rain = 0
KDO1 130106Z 16007KT 11/M06 A3023 RMK A01 T01071056  RH  031%=      5-min Rain = 0
KDO1 130107Z 16007KT 11/M06 A3023 RMK A01 T01071056  RH  031%=      5-min Rain = 0
KDO1 130108Z 16008KT 11/M06 A3023 RMK A01 T01071056  RH  031%=      5-min Rain = 0
KDO1 130109Z 16008KT 11/M06 A3023 RMK A01 T01071056  RH  031%=      5-min Rain = 0
KDO1 130110Z 16008KT 11/M06 A3023 RMK A01 T01071056  RH  031%=      5-min Rain = 0
KDO1 130111Z 16008KT 11/M06 A3023 RMK A01 T01071056  RH  031%=      5-min Rain = 0
KDO1 130112Z 16008KT 11/M06 A3023 RMK A01 T01081056  RH  031%=      5-min Rain = 0
KDO1 130113Z 16008KT 11/M06 A3023 RMK A01 T01081056  RH  031%=      5-min Rain = 0
KDO1 130114Z 16008KT 11/M06 A3023 RMK A01 T01071057  RH  031%=      5-min Rain = 0
KDO1 130115Z 16008KT 11/M06 A3023 RMK A01 T01071057  RH  031%=      5-min Rain = 0
KDO1 130116Z 16008KT 11/M06 A3023 RMK A01 T01061057  RH  031%=      5-min Rain = 0
KDO1 130117Z 16007KT 11/M06 A3023 RMK A01 T01061057  RH  031%=      5-min Rain = 0
KDO1 130118Z 16007KT 11/M06 A3023 RMK A01 T01051057  RH  032%=      5-min Rain = 0
KDO1 130119Z 16008KT 10/M06 A3023 RMK A01 T01041057  RH  032%=      5-min Rain = 0
KDO1 130120Z 16007KT 10/M06 A3023 RMK A01 T01031058  RH  032%=      5-min Rain = 0
KDO1 130121Z 15007KT 10/M06 A3023 RMK A01 T01021057  RH  032%=      5-min Rain = 0
KDO1 130122Z 15007KT 10/M06 A3023 RMK A01 T01021058  RH  032%=      5-min Rain = 0
KDO1 130123Z 15008KT 10/M06 A3023 RMK A01 T01011058  RH  032%=      5-min Rain = 0
KDO1 130124Z 15007KT 10/M06 A3023 RMK A01 T01001058  RH  033%=      5-min Rain = 0
KDO1 130125Z 15007KT 10/M06 A3023 RMK A01 T01001057  RH  033%=      5-min Rain = 0
KDO1 130126Z 15007KT 10/M06 A3023 RMK A01 T01001057  RH  033%=      5-min Rain = 0
KDO1 130127Z 15007KT 10/M06 A3024 RMK A01 T01001057  RH  033%=      5-min Rain = 0
KDO1 130128Z 15007KT 10/M06 A3024 RMK A01 T01001056  RH  033%=      5-min Rain = 0
KDO1 130129Z 15007KT 10/M06 A3024 RMK A01 T01001056  RH  033%=      5-min Rain = 0
KDO1 130130Z 15006KT 10/M06 A3024 RMK A01 T00991056  RH  033%=      5-min Rain = 0
KDO1 130131Z 15006KT 10/M06 A3024 RMK A01 T00991056  RH  033%=      5-min Rain = 0
KDO1 130132Z 14005KT 10/M06 A3024 RMK A01 T00981056  RH  033%=      5-min Rain = 0
KDO1 130133Z 14003KT 10/M06 A3024 RMK A01 T00971057  RH  033%=      5-min Rain = 0
KDO1 130134Z 14003KT 10/M06 A3024 RMK A01 T00951058  RH  033%=      5-min Rain = 0
KDO1 130135Z 14004KT 09/M06 A3024 RMK A01 T00931059  RH  034%=      5-min Rain = 0
KDO1 130136Z 13004KT 09/M06 A3024 RMK A01 T00921059  RH  034%=      5-min Rain = 0
KDO1 130137Z 14004KT 09/M06 A3024 RMK A01 T00911059  RH  034%=      5-min Rain = 0
KDO1 130138Z 14004KT 09/M06 A3024 RMK A01 T00901059  RH  034%=      5-min Rain = 0
KDO1 130139Z 13004KT 09/M06 A3024 RMK A01 T00901059  RH  034%=      5-min Rain = 0
KDO1 130140Z 14005KT 09/M06 A3024 RMK A01 T00891059  RH  035%=      5-min Rain = 0
KDO1 130141Z 14004KT 09/M06 A3024 RMK A01 T00891059  RH  035%=      5-min Rain = 0
KDO1 130142Z 14005KT 09/M06 A3024 RMK A01 T00881059  RH  035%=      5-min Rain = 0
KDO1 130143Z 14004KT 09/M06 A3024 RMK A01 T00881058  RH  035%=      5-min Rain = 0
KDO1 130144Z 14005KT 09/M06 A3024 RMK A01 T00881058  RH  035%=      5-min Rain = 0
KDO1 130145Z 13005KT 09/M06 A3024 RMK A01 T00881057  RH  035%=      5-min Rain = 0
KDO1 130146Z 13005KT 09/M06 A3024 RMK A01 T00871057  RH  035%=      5-min Rain = 0
KDO1 130147Z 13005KT 09/M06 A3024 RMK A01 T00871057  RH  036%=      5-min Rain = 0
KDO1 130148Z 13005KT 09/M06 A3024 RMK A01 T00871056  RH  036%=      5-min Rain = 0
KDO1 130149Z 14004KT 09/M06 A3024 RMK A01 T00861056  RH  036%=      5-min Rain = 0
KDO1 130150Z 14005KT 09/M06 A3024 RMK A01 T00861055  RH  036%=      5-min Rain = 0
KDO1 130151Z 14005KT 09/M05 A3024 RMK A01 T00861054  RH  037%=      5-min Rain = 0
KDO1 130152Z 14005KT 09/M05 A3024 RMK A01 T00851054  RH  037%=      5-min Rain = 0
KDO1 130153Z 14005KT 09/M05 A3024 RMK A01 T00851053  RH  037%=      5-min Rain = 0
KDO1 130154Z 14005KT 09/M05 A3024 RMK A01 T00851053  RH  037%=      5-min Rain = 0
KDO1 130155Z 14006KT 09/M05 A3024 RMK A01 T00851052  RH  037%=      5-min Rain = 0
KDO1 130156Z 14005KT 08/M05 A3024 RMK A01 T00841053  RH  038%=      5-min Rain = 0
KDO1 130157Z 14005KT 08/M05 A3024 RMK A01 T00841052  RH  038%=      5-min Rain = 0
KDO1 130158Z 13005KT 09/M05 A3024 RMK A01 T00851052  RH  038%=      5-min Rain = 0
KDO1 130159Z 13005KT 08/M05 A3025 RMK A01 T00841052  RH  038%=      5-min Rain = 0
KDO1 130200Z 14004KT 08/M05 A3025 RMK A01 T00841052  RH  038%=      5-min Rain = 0
KDO1 130201Z 13004KT 08/M05 A3025 RMK A01 T00841052  RH  038%=      5-min Rain = 0
KDO1 130202Z 13004KT 08/M05 A3025 RMK A01 T00841053  RH  038%=      5-min Rain = 0
KDO1 130203Z 13004KT 08/M05 A3025 RMK A01 T00831053  RH  038%=      5-min Rain = 0
KDO1 130204Z 13004KT 08/M05 A3025 RMK A01 T00821053  RH  038%=      5-min Rain = 0
KDO1 130205Z 13004KT 08/M05 A3025 RMK A01 T00821053  RH  038%=      5-min Rain = 0
KDO1 130206Z 13004KT 08/M05 A3025 RMK A01 T00821053  RH  038%=      5-min Rain = 0
KDO1 130207Z 13004KT 08/M05 A3025 RMK A01 T00811053  RH  038%=      5-min Rain = 0
KDO1 130208Z 13004KT 08/M05 A3025 RMK A01 T00811053  RH  038%=      5-min Rain = 0
KDO1 130209Z 13004KT 08/M05 A3025 RMK A01 T00801053  RH  038%=      5-min Rain = 0
KDO1 130210Z 13004KT 08/M05 A3025 RMK A01 T00801053  RH  038%=      5-min Rain = 0
KDO1 130211Z 13004KT 08/M05 A3025 RMK A01 T00791054  RH  038%=      5-min Rain = 0
KDO1 130212Z 13004KT 08/M05 A3025 RMK A01 T00791054  RH  039%=      5-min Rain = 0
KDO1 130213Z 13005KT 08/M05 A3025 RMK A01 T00791053  RH  039%=      5-min Rain = 0
KDO1 130214Z 13005KT 08/M05 A3025 RMK A01 T00791054  RH  039%=      5-min Rain = 0
KDO1 130215Z 13005KT 08/M05 A3025 RMK A01 T00791054  RH  039%=      5-min Rain = 0
KDO1 130216Z 13005KT 08/M05 A3025 RMK A01 T00791054  RH  039%=      5-min Rain = 0
KDO1 130217Z 13005KT 08/M05 A3025 RMK A01 T00791054  RH  039%=      5-min Rain = 0
KDO1 130218Z 13005KT 08/M05 A3025 RMK A01 T00791054  RH  039%=      5-min Rain = 0
KDO1 130219Z 13005KT 08/M05 A3025 RMK A01 T00791054  RH  038%=      5-min Rain = 0
KDO1 130220Z 13005KT 08/M05 A3025 RMK A01 T00791054  RH  038%=      5-min Rain = 0
KDO1 130221Z 13005KT 08/M05 A3025 RMK A01 T00791054  RH  038%=      5-min Rain = 0
KDO1 130222Z 13005KT 08/M05 A3025 RMK A01 T00791054  RH  038%=      5-min Rain = 0
KDO1 130223Z 13004KT 08/M05 A3025 RMK A01 T00791054  RH  038%=      5-min Rain = 0
KDO1 130224Z 14005KT 08/M05 A3025 RMK A01 T00791054  RH  038%=      5-min Rain = 0
KDO1 130225Z 14006KT 08/M05 A3025 RMK A01 T00781054  RH  038%=      5-min Rain = 0
KDO1 130226Z 14005KT 08/M05 A3025 RMK A01 T00791054  RH  039%=      5-min Rain = 0
KDO1 130227Z 14005KT 08/M06 A3025 RMK A01 T00781055  RH  038%=      5-min Rain = 0
KDO1 130228Z 13005KT 08/M06 A3025 RMK A01 T00781055  RH  039%=      5-min Rain = 0
KDO1 130229Z 13005KT 08/M06 A3025 RMK A01 T00781055  RH  039%=      5-min Rain = 0
KDO1 130230Z 13004KT 08/M06 A3025 RMK A01 T00771055  RH  039%=      5-min Rain = 0
KDO1 130231Z 13005KT 08/M06 A3025 RMK A01 T00771055  RH  039%=      5-min Rain = 0
KDO1 130232Z 13004KT 08/M06 A3025 RMK A01 T00761055  RH  039%=      5-min Rain = 0
KDO1 130233Z 13005KT 08/M06 A3025 RMK A01 T00751055  RH  039%=      5-min Rain = 0
KDO1 130234Z 13005KT 08/M06 A3025 RMK A01 T00751055  RH  039%=      5-min Rain = 0
KDO1 130235Z 14005KT 08/M06 A3025 RMK A01 T00751055  RH  039%=      5-min Rain = 0
KDO1 130236Z 14005KT 08/M06 A3025 RMK A01 T00751055  RH  039%=      5-min Rain = 0
KDO1 130237Z 14004KT 08/M06 A3025 RMK A01 T00751055  RH  039%=      5-min Rain = 0
KDO1 130238Z 14005KT 08/M06 A3025 RMK A01 T00751055  RH  039%=      5-min Rain = 0
KDO1 130239Z 14005KT 08/M06 A3025 RMK A01 T00751056  RH  039%=      5-min Rain = 0
KDO1 130240Z 14005KT 08/M06 A3025 RMK A01 T00751056  RH  039%=      5-min Rain = 0
KDO1 130241Z 14005KT 08/M06 A3025 RMK A01 T00751056  RH  039%=      5-min Rain = 0
KDO1 130242Z 14005KT 08/M06 A3025 RMK A01 T00751056  RH  039%=      5-min Rain = 0
KDO1 130243Z 14004KT 08/M06 A3025 RMK A01 T00751056  RH  039%=      5-min Rain = 0
KDO1 130244Z 14005KT 08/M06 A3025 RMK A01 T00751055  RH  039%=      5-min Rain = 0
KDO1 130245Z 13004KT 07/M06 A3026 RMK A01 T00741056  RH  039%=      5-min Rain = 0
KDO1 130246Z 13004KT 07/M06 A3026 RMK A01 T00741056  RH  039%=      5-min Rain = 0
KDO1 130247Z 13005KT 07/M06 A3026 RMK A01 T00741056  RH  039%=      5-min Rain = 0
KDO1 130248Z 13004KT 07/M06 A3026 RMK A01 T00731056  RH  039%=      5-min Rain = 0
KDO1 130249Z 13004KT 07/M06 A3026 RMK A01 T00731056  RH  039%=      5-min Rain = 0
KDO1 130250Z 13004KT 07/M06 A3026 RMK A01 T00731056  RH  039%=      5-min Rain = 0
KDO1 130251Z 14004KT 07/M06 A3026 RMK A01 T00731056  RH  039%=      5-min Rain = 0
KDO1 130252Z 14004KT 07/M06 A3026 RMK A01 T00731056  RH  039%=      5-min Rain = 0
KDO1 130253Z 13005KT 07/M06 A3026 RMK A01 T00731056  RH  039%=      5-min Rain = 0
KDO1 130254Z 12004KT 07/M06 A3026 RMK A01 T00721056  RH  039%=      5-min Rain = 0
KDO1 130255Z 12003KT 07/M06 A3026 RMK A01 T00721057  RH  040%=      5-min Rain = 0
KDO1 130256Z 12003KT 07/M06 A3026 RMK A01 T00711057  RH  040%=      5-min Rain = 0
KDO1 130257Z 12002KT 07/M06 A3026 RMK A01 T00701057  RH  040%=      5-min Rain = 0
KDO1 130258Z 11003KT 07/M06 A3026 RMK A01 T00701057  RH  040%=      5-min Rain = 0
KDO1 130259Z 11003KT 07/M06 A3026 RMK A01 T00691057  RH  040%=      5-min Rain = 0
KDO1 130300Z 11003KT 07/M06 A3026 RMK A01 T00691057  RH  040%=      5-min Rain = 0
KDO1 130301Z 11003KT 07/M06 A3026 RMK A01 T00691057  RH  040%=      5-min Rain = 0
KDO1 130302Z 11003KT 07/M06 A3026 RMK A01 T00691057  RH  040%=      5-min Rain = 0
KDO1 130303Z 11003KT 07/M06 A3026 RMK A01 T00691058  RH  040%=      5-min Rain = 0
KDO1 130304Z 11003KT 07/M06 A3026 RMK A01 T00681058  RH  040%=      5-min Rain = 0
KDO1 130305Z 13004KT 07/M06 A3026 RMK A01 T00671059  RH  040%=      5-min Rain = 0
KDO1 130306Z 13007KT 07/M06 A3026 RMK A01 T00671058  RH  040%=      5-min Rain = 0
KDO1 130307Z 14006KT 07/M06 A3026 RMK A01 T00691057  RH  040%=      5-min Rain = 0
KDO1 130308Z 13006KT 07/M06 A3026 RMK A01 T00711057  RH  040%=      5-min Rain = 0
KDO1 130309Z 13006KT 07/M06 A3026 RMK A01 T00701058  RH  040%=      5-min Rain = 0
KDO1 130310Z 13005KT 07/M06 A3026 RMK A01 T00711057  RH  040%=      5-min Rain = 0
KDO1 130311Z 14005KT 07/M06 A3026 RMK A01 T00721057  RH  039%=      5-min Rain = 0
KDO1 130312Z 14006KT 07/M06 A3026 RMK A01 T00721057  RH  039%=      5-min Rain = 0
KDO1 130313Z 14005KT 07/M06 A3026 RMK A01 T00721057  RH  039%=      5-min Rain = 0
KDO1 130314Z 14005KT 07/M06 A3026 RMK A01 T00711057  RH  039%=      5-min Rain = 0
KDO1 130315Z 14004KT 07/M06 A3026 RMK A01 T00711057  RH  039%=      5-min Rain = 0
KDO1 130316Z 14004KT 07/M06 A3026 RMK A01 T00701058  RH  039%=      5-min Rain = 0
KDO1 130317Z 14004KT 07/M06 A3026 RMK A01 T00701058  RH  040%=      5-min Rain = 0
KDO1 130318Z 14004KT 07/M06 A3026 RMK A01 T00691058  RH  040%=      5-min Rain = 0
KDO1 130319Z 14004KT 07/M06 A3026 RMK A01 T00691058  RH  040%=      5-min Rain = 0
KDO1 130320Z 14004KT 07/M06 A3026 RMK A01 T00681058  RH  040%=      5-min Rain = 0
KDO1 130321Z 14004KT 07/M06 A3026 RMK A01 T00671058  RH  040%=      5-min Rain = 0
KDO1 130322Z 14004KT 07/M06 A3026 RMK A01 T00661059  RH  040%=      5-min Rain = 0
KDO1 130323Z 14004KT 07/M06 A3026 RMK A01 T00661058  RH  041%=      5-min Rain = 0
KDO1 130324Z 13004KT 07/M06 A3026 RMK A01 T00661059  RH  041%=      5-min Rain = 0
KDO1 130325Z 14004KT 07/M06 A3026 RMK A01 T00661058  RH  041%=      5-min Rain = 0
KDO1 130326Z 13004KT 07/M06 A3026 RMK A01 T00661058  RH  041%=      5-min Rain = 0
KDO1 130327Z 14004KT 07/M06 A3026 RMK A01 T00651059  RH  041%=      5-min Rain = 0
KDO1 130328Z 14003KT 07/M06 A3026 RMK A01 T00651059  RH  041%=      5-min Rain = 0
KDO1 130329Z 13003KT 06/M06 A3026 RMK A01 T00641059  RH  041%=      5-min Rain = 0
KDO1 130330Z 13003KT 06/M06 A3026 RMK A01 T00641058  RH  041%=      5-min Rain = 0
KDO1 130331Z 13003KT 06/M06 A3026 RMK A01 T00641058  RH  041%=      5-min Rain = 0
KDO1 130332Z 13003KT 06/M06 A3026 RMK A01 T00641058  RH  041%=      5-min Rain = 0
KDO1 130333Z 13003KT 06/M06 A3026 RMK A01 T00641058  RH  041%=      5-min Rain = 0
KDO1 130334Z 13002KT 06/M06 A3026 RMK A01 T00641058  RH  041%=      5-min Rain = 0
KDO1 130335Z 11003KT 06/M06 A3026 RMK A01 T00641058  RH  041%=      5-min Rain = 0
KDO1 130336Z 11003KT 07/M06 A3026 RMK A01 T00651058  RH  041%=      5-min Rain = 0
KDO1 130337Z 11003KT 06/M06 A3026 RMK A01 T00641058  RH  041%=      5-min Rain = 0
KDO1 130338Z 09002KT 06/M06 A3026 RMK A01 T00641058  RH  041%=      5-min Rain = 0
KDO1 130339Z 08002KT 06/M06 A3026 RMK A01 T00641058  RH  041%=      5-min Rain = 0
KDO1 130340Z 08003KT 06/M06 A3026 RMK A01 T00631059  RH  041%=      5-min Rain = 0
KDO1 130341Z 09003KT 06/M06 A3026 RMK A01 T00621059  RH  041%=      5-min Rain = 0
KDO1 130342Z 09003KT 06/M06 A3026 RMK A01 T00621059  RH  042%=      5-min Rain = 0
KDO1 130343Z 09003KT 06/M06 A3026 RMK A01 T00611060  RH  042%=      5-min Rain = 0
KDO1 130344Z 09003KT 06/M06 A3026 RMK A01 T00601059  RH  042%=      5-min Rain = 0
KDO1 130345Z 10003KT 06/M06 A3026 RMK A01 T00601060  RH  042%=      5-min Rain = 0
KDO1 130346Z 10002KT 06/M06 A3026 RMK A01 T00591060  RH  042%=      5-min Rain = 0
KDO1 130347Z 11002KT 06/M06 A3026 RMK A01 T00581060  RH  042%=      5-min Rain = 0
KDO1 130348Z 11002KT 06/M06 A3026 RMK A01 T00581060  RH  043%=      5-min Rain = 0
KDO1 130349Z 11002KT 06/M06 A3026 RMK A01 T00581059  RH  043%=      5-min Rain = 0
KDO1 130350Z 11002KT 06/M06 A3026 RMK A01 T00581059  RH  043%=      5-min Rain = 0
KDO1 130351Z 11002KT 06/M06 A3026 RMK A01 T00581059  RH  043%=      5-min Rain = 0
KDO1 130352Z 11002KT 06/M06 A3026 RMK A01 T00581060  RH  043%=      5-min Rain = 0
KDO1 130353Z 11002KT 06/M06 A3026 RMK A01 T00581059  RH  043%=      5-min Rain = 0
KDO1 130354Z 12003KT 06/M06 A3026 RMK A01 T00571059  RH  043%=      5-min Rain = 0
KDO1 130355Z 12003KT 06/M06 A3026 RMK A01 T00581059  RH  043%=      5-min Rain = 0
KDO1 130356Z 13002KT 06/M06 A3026 RMK A01 T00591059  RH  043%=      5-min Rain = 0
KDO1 130357Z 14003KT 06/M06 A3026 RMK A01 T00591059  RH  043%=      5-min Rain = 0
KDO1 130358Z 14003KT 06/M06 A3026 RMK A01 T00581059  RH  043%=      5-min Rain = 0
KDO1 130359Z 13003KT 06/M06 A3026 RMK A01 T00581059  RH  043%=      5-min Rain = 0
KDO1 130400Z 15003KT 06/M06 A3026 RMK A01 T00581059  RH  043%=      5-min Rain = 0
KDO1 130401Z 14002KT 06/M06 A3026 RMK A01 T00591058  RH  043%=      5-min Rain = 0
KDO1 130402Z 15003KT 06/M06 A3026 RMK A01 T00591058  RH  043%=      5-min Rain = 0
KDO1 130403Z 14003KT 06/M06 A3026 RMK A01 T00591058  RH  043%=      5-min Rain = 0
KDO1 130404Z 14003KT 06/M06 A3026 RMK A01 T00591058  RH  043%=      5-min Rain = 0
KDO1 130405Z 15003KT 06/M06 A3026 RMK A01 T00591058  RH  043%=      5-min Rain = 0
KDO1 130406Z 15003KT 06/M06 A3026 RMK A01 T00601058  RH  043%=      5-min Rain = 0
KDO1 130407Z 15003KT 06/M06 A3026 RMK A01 T00601058  RH  043%=      5-min Rain = 0
KDO1 130408Z 14003KT 06/M06 A3026 RMK A01 T00601058  RH  043%=      5-min Rain = 0
KDO1 130409Z 14003KT 06/M06 A3026 RMK A01 T00601057  RH  043%=      5-min Rain = 0
KDO1 130410Z 14003KT 06/M06 A3026 RMK A01 T00601058  RH  043%=      5-min Rain = 0
KDO1 130411Z 14004KT 06/M06 A3026 RMK A01 T00591058  RH  043%=      5-min Rain = 0
KDO1 130412Z 14004KT 06/M06 A3026 RMK A01 T00581058  RH  043%=      5-min Rain = 0
KDO1 130413Z 14003KT 06/M06 A3026 RMK A01 T00581058  RH  043%=      5-min Rain = 0
KDO1 130414Z 13003KT 06/M06 A3026 RMK A01 T00581058  RH  043%=      5-min Rain = 0
KDO1 130415Z 14004KT 06/M06 A3026 RMK A01 T00581057  RH  043%=      5-min Rain = 0
KDO1 130416Z 14004KT 06/M06 A3026 RMK A01 T00581058  RH  043%=      5-min Rain = 0
KDO1 130417Z 14004KT 06/M06 A3026 RMK A01 T00581058  RH  043%=      5-min Rain = 0
KDO1 130418Z 14003KT 06/M06 A3026 RMK A01 T00581057  RH  043%=      5-min Rain = 0
KDO1 130419Z 14004KT 06/M06 A3026 RMK A01 T00581057  RH  043%=      5-min Rain = 0
KDO1 130420Z 14004KT 06/M06 A3026 RMK A01 T00571058  RH  043%=      5-min Rain = 0
KDO1 130421Z 14004KT 06/M06 A3026 RMK A01 T00571058  RH  043%=      5-min Rain = 0
KDO1 130422Z 14004KT 06/M06 A3026 RMK A01 T00571058  RH  043%=      5-min Rain = 0
KDO1 130423Z 13003KT 06/M06 A3026 RMK A01 T00571057  RH  044%=      5-min Rain = 0
KDO1 130424Z 14004KT 06/M06 A3026 RMK A01 T00561058  RH  044%=      5-min Rain = 0
KDO1 130425Z 14003KT 06/M06 A3026 RMK A01 T00561058  RH  044%=      5-min Rain = 0
KDO1 130426Z 14003KT 06/M06 A3026 RMK A01 T00551058  RH  044%=      5-min Rain = 0
KDO1 130427Z 14003KT 06/M06 A3026 RMK A01 T00551058  RH  044%=      5-min Rain = 0
KDO1 130428Z 14002KT 05/M06 A3026 RMK A01 T00541058  RH  044%=      5-min Rain = 0
KDO1 130429Z 14003KT 05/M06 A3026 RMK A01 T00541058  RH  044%=      5-min Rain = 0
KDO1 130430Z 15002KT 05/M06 A3026 RMK A01 T00541059  RH  044%=      5-min Rain = 0
KDO1 130431Z 15002KT 05/M06 A3026 RMK A01 T00531059  RH  044%=      5-min Rain = 0
KDO1 130432Z 14003KT 05/M06 A3026 RMK A01 T00521059  RH  045%=      5-min Rain = 0
KDO1 130433Z 14002KT 05/M06 A3026 RMK A01 T00511059  RH  045%=      5-min Rain = 0
KDO1 130434Z 15002KT 05/M06 A3026 RMK A01 T00511059  RH  045%=      5-min Rain = 0
KDO1 130435Z 15003KT 05/M06 A3026 RMK A01 T00501058  RH  045%=      5-min Rain = 0
KDO1 130436Z 15002KT 05/M06 A3026 RMK A01 T00501058  RH  045%=      5-min Rain = 0
KDO1 130437Z 14002KT 05/M06 A3026 RMK A01 T00501059  RH  045%=      5-min Rain = 0
KDO1 130438Z 14002KT 05/M06 A3026 RMK A01 T00491059  RH  045%=      5-min Rain = 0
KDO1 130439Z 15002KT 05/M06 A3026 RMK A01 T00491058  RH  046%=      5-min Rain = 0
KDO1 130440Z 14002KT 05/M06 A3026 RMK A01 T00491058  RH  046%=      5-min Rain = 0
KDO1 130441Z 15002KT 05/M06 A3026 RMK A01 T00491059  RH  045%=      5-min Rain = 0
KDO1 130442Z 15001KT 05/M06 A3026 RMK A01 T00491059  RH  046%=      5-min Rain = 0
KDO1 130443Z 15002KT 05/M06 A3026 RMK A01 T00501058  RH  046%=      5-min Rain = 0
KDO1 130444Z 15002KT 05/M06 A3026 RMK A01 T00501058  RH  046%=      5-min Rain = 0
KDO1 130445Z 13002KT 05/M06 A3026 RMK A01 T00501058  RH  046%=      5-min Rain = 0
KDO1 130446Z 13002KT 05/M06 A3026 RMK A01 T00501058  RH  046%=      5-min Rain = 0
KDO1 130447Z 13002KT 05/M06 A3026 RMK A01 T00511058  RH  046%=      5-min Rain = 0
KDO1 130448Z 12001KT 05/M06 A3026 RMK A01 T00521057  RH  045%=      5-min Rain = 0
KDO1 130449Z 13001KT 05/M06 A3026 RMK A01 T00521057  RH  045%=      5-min Rain = 0
KDO1 130450Z 12001KT 05/M06 A3026 RMK A01 T00531057  RH  045%=      5-min Rain = 0
KDO1 130451Z 12001KT 05/M06 A3026 RMK A01 T00531057  RH  045%=      5-min Rain = 0
KDO1 130452Z 14001KT 05/M06 A3026 RMK A01 T00531057  RH  045%=      5-min Rain = 0
KDO1 130453Z 15000KT 05/M06 A3027 RMK A01 T00531058  RH  045%=      5-min Rain = 0
KDO1 130454Z 16000KT 05/M06 A3027 RMK A01 T00531057  RH  045%=      5-min Rain = 0
KDO1 130455Z 16000KT 05/M06 A3027 RMK A01 T00531057  RH  045%=      5-min Rain = 0
KDO1 130456Z 16000KT 05/M06 A3027 RMK A01 T00531057  RH  045%=      5-min Rain = 0
KDO1 130457Z 18000KT 05/M06 A3027 RMK A01 T00531057  RH  045%=      5-min Rain = 0
KDO1 130458Z 17000KT 05/M06 A3027 RMK A01 T00531057  RH  045%=      5-min Rain = 0
KDO1 130459Z 15000KT 05/M06 A3027 RMK A01 T00531057  RH  045%=      5-min Rain = 0

Page generated in 0.1789 seconds.